<?xml version="1.0" encoding="utf-8"?>
<gpx xmlns:xsi="http://www.w3.org/2001/XMLSchema-instance" xmlns:xsd="http://www.w3.org/2001/XMLSchema" version="1.1" creator="Shapelink.com" xmlns="http://www.topografix.com/GPX/1/1" xmlns:gpxtpx="http://www.garmin.com/xmlschemas/TrackPointExtension/v1">
  <metadata>
    <name>Radfahren 26.32 km, 2011-05-18</name>
    <desc></desc>
    <author><name>Jessica Ternander</name></author> 
    <time>2011-05-18T16:10:28Z</time>
  </metadata>
  <trk>
    <name>Radfahren 26.32 km, 2011-05-18</name>
    <trkseg>
      <trkpt lat="59.3045171" lon="18.1063504">
        <ele>56.3745</ele>
        <time>2011-05-18T16:10:28Z</time>
      </trkpt>
      <trkpt lat="59.3044933" lon="18.106321">
        <ele>54.9324</ele>
        <time>2011-05-18T16:10:30Z</time>
      </trkpt>
      <trkpt lat="59.3044331" lon="18.1062297">
        <ele>49.6453</ele>
        <time>2011-05-18T16:10:36Z</time>
      </trkpt>
      <trkpt lat="59.3044259" lon="18.1061816">
        <ele>42.4354</ele>
        <time>2011-05-18T16:10:40Z</time>
      </trkpt>
      <trkpt lat="59.3044288" lon="18.1061836">
        <ele>31.3801</ele>
        <time>2011-05-18T16:10:46Z</time>
      </trkpt>
      <trkpt lat="59.3044263" lon="18.1061964">
        <ele>24.651</ele>
        <time>2011-05-18T16:10:50Z</time>
      </trkpt>
      <trkpt lat="59.3045031" lon="18.1062772">
        <ele>16.9604</ele>
        <time>2011-05-18T16:10:55Z</time>
      </trkpt>
      <trkpt lat="59.3046241" lon="18.1064002">
        <ele>14.0764</ele>
        <time>2011-05-18T16:10:59Z</time>
      </trkpt>
      <trkpt lat="59.3048657" lon="18.1067302">
        <ele>14.0764</ele>
        <time>2011-05-18T16:11:06Z</time>
      </trkpt>
      <trkpt lat="59.3051127" lon="18.1069706">
        <ele>24.651</ele>
        <time>2011-05-18T16:11:13Z</time>
      </trkpt>
      <trkpt lat="59.3051956" lon="18.1071098">
        <ele>28.0155</ele>
        <time>2011-05-18T16:11:18Z</time>
      </trkpt>
      <trkpt lat="59.305204" lon="18.1071265">
        <ele>29.4575</ele>
        <time>2011-05-18T16:11:21Z</time>
      </trkpt>
      <trkpt lat="59.3052514" lon="18.1072111">
        <ele>34.2642</ele>
        <time>2011-05-18T16:11:25Z</time>
      </trkpt>
      <trkpt lat="59.3054246" lon="18.1073869">
        <ele>36.1868</ele>
        <time>2011-05-18T16:11:30Z</time>
      </trkpt>
      <trkpt lat="59.3057148" lon="18.1074915">
        <ele>30.8995</ele>
        <time>2011-05-18T16:11:35Z</time>
      </trkpt>
      <trkpt lat="59.3059909" lon="18.1076145">
        <ele>26.5736</ele>
        <time>2011-05-18T16:11:40Z</time>
      </trkpt>
      <trkpt lat="59.3061064" lon="18.1076636">
        <ele>22.2476</ele>
        <time>2011-05-18T16:11:43Z</time>
      </trkpt>
      <trkpt lat="59.3062557" lon="18.1077786">
        <ele>20.325</ele>
        <time>2011-05-18T16:11:46Z</time>
      </trkpt>
      <trkpt lat="59.3063605" lon="18.1080521">
        <ele>28.9769</ele>
        <time>2011-05-18T16:11:50Z</time>
      </trkpt>
      <trkpt lat="59.3063794" lon="18.1087672">
        <ele>42.916</ele>
        <time>2011-05-18T16:11:58Z</time>
      </trkpt>
      <trkpt lat="59.3062873" lon="18.1093247">
        <ele>35.7061</ele>
        <time>2011-05-18T16:12:04Z</time>
      </trkpt>
      <trkpt lat="59.3062686" lon="18.1095641">
        <ele>25.1317</ele>
        <time>2011-05-18T16:12:09Z</time>
      </trkpt>
      <trkpt lat="59.3063333" lon="18.1096406">
        <ele>15.999</ele>
        <time>2011-05-18T16:12:15Z</time>
      </trkpt>
      <trkpt lat="59.3064182" lon="18.1096805">
        <ele>17.4412</ele>
        <time>2011-05-18T16:12:20Z</time>
      </trkpt>
      <trkpt lat="59.3065833" lon="18.1096822">
        <ele>14.557</ele>
        <time>2011-05-18T16:12:26Z</time>
      </trkpt>
      <trkpt lat="59.3067135" lon="18.1096539">
        <ele>12.6344</ele>
        <time>2011-05-18T16:12:30Z</time>
      </trkpt>
      <trkpt lat="59.3068788" lon="18.109521">
        <ele>1.57935</ele>
        <time>2011-05-18T16:12:35Z</time>
      </trkpt>
      <trkpt lat="59.3072332" lon="18.1095746">
        <ele>3.02124</ele>
        <time>2011-05-18T16:12:42Z</time>
      </trkpt>
      <trkpt lat="59.307277" lon="18.1095704">
        <ele>2.06006</ele>
        <time>2011-05-18T16:12:43Z</time>
      </trkpt>
      <trkpt lat="59.3073361" lon="18.1095911">
        <ele>1.57935</ele>
        <time>2011-05-18T16:12:45Z</time>
      </trkpt>
      <trkpt lat="59.3074242" lon="18.109662">
        <ele>3.02124</ele>
        <time>2011-05-18T16:12:52Z</time>
      </trkpt>
      <trkpt lat="59.3074367" lon="18.1096636">
        <ele>3.02124</ele>
        <time>2011-05-18T16:12:53Z</time>
      </trkpt>
      <trkpt lat="59.3075779" lon="18.1096071">
        <ele>3.98267</ele>
        <time>2011-05-18T16:13:00Z</time>
      </trkpt>
      <trkpt lat="59.3076589" lon="18.1095775">
        <ele>3.98267</ele>
        <time>2011-05-18T16:13:03Z</time>
      </trkpt>
      <trkpt lat="59.3077075" lon="18.1097387">
        <ele>3.98267</ele>
        <time>2011-05-18T16:13:07Z</time>
      </trkpt>
      <trkpt lat="59.3076571" lon="18.1103716">
        <ele>3.50195</ele>
        <time>2011-05-18T16:13:14Z</time>
      </trkpt>
      <trkpt lat="59.3076458" lon="18.1105717">
        <ele>3.98267</ele>
        <time>2011-05-18T16:13:16Z</time>
      </trkpt>
      <trkpt lat="59.3076941" lon="18.1109735">
        <ele>3.50195</ele>
        <time>2011-05-18T16:13:21Z</time>
      </trkpt>
      <trkpt lat="59.3076981" lon="18.1110591">
        <ele>3.98267</ele>
        <time>2011-05-18T16:13:22Z</time>
      </trkpt>
      <trkpt lat="59.3076727" lon="18.1116227">
        <ele>3.50195</ele>
        <time>2011-05-18T16:13:28Z</time>
      </trkpt>
      <trkpt lat="59.3075319" lon="18.112249">
        <ele>2.54065</ele>
        <time>2011-05-18T16:13:34Z</time>
      </trkpt>
      <trkpt lat="59.3073169" lon="18.112691">
        <ele>2.06006</ele>
        <time>2011-05-18T16:13:39Z</time>
      </trkpt>
      <trkpt lat="59.3071657" lon="18.113043">
        <ele>0.618042</ele>
        <time>2011-05-18T16:13:44Z</time>
      </trkpt>
      <trkpt lat="59.3071824" lon="18.1132321">
        <ele>0</ele>
        <time>2011-05-18T16:13:46Z</time>
      </trkpt>
      <trkpt lat="59.3072083" lon="18.1135192">
        <ele>0</ele>
        <time>2011-05-18T16:13:49Z</time>
      </trkpt>
      <trkpt lat="59.3072342" lon="18.113765">
        <ele>0</ele>
        <time>2011-05-18T16:13:53Z</time>
      </trkpt>
      <trkpt lat="59.3073133" lon="18.1138658">
        <ele>0</ele>
        <time>2011-05-18T16:13:56Z</time>
      </trkpt>
      <trkpt lat="59.307623" lon="18.1139316">
        <ele>1.57935</ele>
        <time>2011-05-18T16:14:03Z</time>
      </trkpt>
      <trkpt lat="59.3078199" lon="18.1141749">
        <ele>3.98267</ele>
        <time>2011-05-18T16:14:08Z</time>
      </trkpt>
      <trkpt lat="59.3079204" lon="18.1144006">
        <ele>5.42456</ele>
        <time>2011-05-18T16:14:11Z</time>
      </trkpt>
      <trkpt lat="59.3080352" lon="18.1150333">
        <ele>5.90527</ele>
        <time>2011-05-18T16:14:17Z</time>
      </trkpt>
      <trkpt lat="59.3081421" lon="18.1157479">
        <ele>4.46326</ele>
        <time>2011-05-18T16:14:23Z</time>
      </trkpt>
      <trkpt lat="59.3081694" lon="18.1158107">
        <ele>4.46326</ele>
        <time>2011-05-18T16:14:24Z</time>
      </trkpt>
      <trkpt lat="59.3081566" lon="18.116305">
        <ele>5.42456</ele>
        <time>2011-05-18T16:14:28Z</time>
      </trkpt>
      <trkpt lat="59.308057" lon="18.1168471">
        <ele>6.86646</ele>
        <time>2011-05-18T16:14:34Z</time>
      </trkpt>
      <trkpt lat="59.307827" lon="18.1176087">
        <ele>9.2699</ele>
        <time>2011-05-18T16:14:44Z</time>
      </trkpt>
      <trkpt lat="59.3076478" lon="18.1184345">
        <ele>11.6732</ele>
        <time>2011-05-18T16:14:54Z</time>
      </trkpt>
      <trkpt lat="59.3075044" lon="18.1191995">
        <ele>14.0764</ele>
        <time>2011-05-18T16:15:03Z</time>
      </trkpt>
      <trkpt lat="59.3073744" lon="18.1198478">
        <ele>16.9604</ele>
        <time>2011-05-18T16:15:12Z</time>
      </trkpt>
      <trkpt lat="59.3073051" lon="18.1201625">
        <ele>19.8444</ele>
        <time>2011-05-18T16:15:17Z</time>
      </trkpt>
      <trkpt lat="59.3072373" lon="18.1206418">
        <ele>20.325</ele>
        <time>2011-05-18T16:15:24Z</time>
      </trkpt>
      <trkpt lat="59.307188" lon="18.1209153">
        <ele>20.8057</ele>
        <time>2011-05-18T16:15:29Z</time>
      </trkpt>
      <trkpt lat="59.3071541" lon="18.1209447">
        <ele>20.8057</ele>
        <time>2011-05-18T16:15:34Z</time>
      </trkpt>
      <trkpt lat="59.3071252" lon="18.1209302">
        <ele>20.325</ele>
        <time>2011-05-18T16:15:38Z</time>
      </trkpt>
      <trkpt lat="59.307089" lon="18.1209107">
        <ele>19.3638</ele>
        <time>2011-05-18T16:15:41Z</time>
      </trkpt>
      <trkpt lat="59.3070498" lon="18.1209339">
        <ele>19.3638</ele>
        <time>2011-05-18T16:15:46Z</time>
      </trkpt>
      <trkpt lat="59.3069642" lon="18.1212271">
        <ele>17.9218</ele>
        <time>2011-05-18T16:15:51Z</time>
      </trkpt>
      <trkpt lat="59.306833" lon="18.1217979">
        <ele>16.9604</ele>
        <time>2011-05-18T16:15:57Z</time>
      </trkpt>
      <trkpt lat="59.306646" lon="18.1226562">
        <ele>14.557</ele>
        <time>2011-05-18T16:16:04Z</time>
      </trkpt>
      <trkpt lat="59.3066513" lon="18.1230516">
        <ele>14.0764</ele>
        <time>2011-05-18T16:16:07Z</time>
      </trkpt>
      <trkpt lat="59.3066378" lon="18.1240804">
        <ele>12.1538</ele>
        <time>2011-05-18T16:16:14Z</time>
      </trkpt>
      <trkpt lat="59.3066376" lon="18.1251986">
        <ele>10.2312</ele>
        <time>2011-05-18T16:16:21Z</time>
      </trkpt>
      <trkpt lat="59.3066623" lon="18.1264368">
        <ele>6.86646</ele>
        <time>2011-05-18T16:16:28Z</time>
      </trkpt>
      <trkpt lat="59.3066839" lon="18.1276401">
        <ele>5.42456</ele>
        <time>2011-05-18T16:16:35Z</time>
      </trkpt>
      <trkpt lat="59.3066496" lon="18.1286518">
        <ele>5.90527</ele>
        <time>2011-05-18T16:16:42Z</time>
      </trkpt>
      <trkpt lat="59.3066457" lon="18.1289365">
        <ele>5.90527</ele>
        <time>2011-05-18T16:16:44Z</time>
      </trkpt>
      <trkpt lat="59.3066879" lon="18.1293443">
        <ele>6.38586</ele>
        <time>2011-05-18T16:16:47Z</time>
      </trkpt>
      <trkpt lat="59.3067221" lon="18.1301632">
        <ele>6.38586</ele>
        <time>2011-05-18T16:16:53Z</time>
      </trkpt>
      <trkpt lat="59.3067355" lon="18.130703">
        <ele>6.86646</ele>
        <time>2011-05-18T16:16:58Z</time>
      </trkpt>
      <trkpt lat="59.3067481" lon="18.1316536">
        <ele>7.82788</ele>
        <time>2011-05-18T16:17:06Z</time>
      </trkpt>
      <trkpt lat="59.3067435" lon="18.1325854">
        <ele>7.82788</ele>
        <time>2011-05-18T16:17:13Z</time>
      </trkpt>
      <trkpt lat="59.3067176" lon="18.1339204">
        <ele>7.34717</ele>
        <time>2011-05-18T16:17:22Z</time>
      </trkpt>
      <trkpt lat="59.3066791" lon="18.1357661">
        <ele>7.34717</ele>
        <time>2011-05-18T16:17:34Z</time>
      </trkpt>
      <trkpt lat="59.3066564" lon="18.1370388">
        <ele>7.34717</ele>
        <time>2011-05-18T16:17:43Z</time>
      </trkpt>
      <trkpt lat="59.3066529" lon="18.1381039">
        <ele>8.30859</ele>
        <time>2011-05-18T16:17:51Z</time>
      </trkpt>
      <trkpt lat="59.3066896" lon="18.1393376">
        <ele>9.2699</ele>
        <time>2011-05-18T16:18:01Z</time>
      </trkpt>
      <trkpt lat="59.3067045" lon="18.1401827">
        <ele>9.75061</ele>
        <time>2011-05-18T16:18:08Z</time>
      </trkpt>
      <trkpt lat="59.3067232" lon="18.1412296">
        <ele>11.6732</ele>
        <time>2011-05-18T16:18:17Z</time>
      </trkpt>
      <trkpt lat="59.3067547" lon="18.1423246">
        <ele>13.5958</ele>
        <time>2011-05-18T16:18:27Z</time>
      </trkpt>
      <trkpt lat="59.3067786" lon="18.1437539">
        <ele>15.999</ele>
        <time>2011-05-18T16:18:40Z</time>
      </trkpt>
      <trkpt lat="59.3068093" lon="18.1450495">
        <ele>16.4797</ele>
        <time>2011-05-18T16:18:51Z</time>
      </trkpt>
      <trkpt lat="59.3068465" lon="18.1466096">
        <ele>17.4412</ele>
        <time>2011-05-18T16:19:04Z</time>
      </trkpt>
      <trkpt lat="59.306908" lon="18.1478535">
        <ele>17.9218</ele>
        <time>2011-05-18T16:19:14Z</time>
      </trkpt>
      <trkpt lat="59.3070327" lon="18.1490242">
        <ele>16.9604</ele>
        <time>2011-05-18T16:19:23Z</time>
      </trkpt>
      <trkpt lat="59.307178" lon="18.1503662">
        <ele>16.4797</ele>
        <time>2011-05-18T16:19:33Z</time>
      </trkpt>
      <trkpt lat="59.3072387" lon="18.151295">
        <ele>16.4797</ele>
        <time>2011-05-18T16:19:40Z</time>
      </trkpt>
      <trkpt lat="59.3072717" lon="18.1519001">
        <ele>15.999</ele>
        <time>2011-05-18T16:19:45Z</time>
      </trkpt>
      <trkpt lat="59.3073113" lon="18.1522627">
        <ele>16.4797</ele>
        <time>2011-05-18T16:19:48Z</time>
      </trkpt>
      <trkpt lat="59.3073271" lon="18.1527188">
        <ele>16.9604</ele>
        <time>2011-05-18T16:19:52Z</time>
      </trkpt>
      <trkpt lat="59.3073522" lon="18.1532055">
        <ele>17.9218</ele>
        <time>2011-05-18T16:19:58Z</time>
      </trkpt>
      <trkpt lat="59.307359" lon="18.1532825">
        <ele>17.9218</ele>
        <time>2011-05-18T16:19:59Z</time>
      </trkpt>
      <trkpt lat="59.3073189" lon="18.1535027">
        <ele>17.9218</ele>
        <time>2011-05-18T16:20:03Z</time>
      </trkpt>
      <trkpt lat="59.3073225" lon="18.1536122">
        <ele>17.9218</ele>
        <time>2011-05-18T16:20:05Z</time>
      </trkpt>
      <trkpt lat="59.307377" lon="18.1541062">
        <ele>18.8831</ele>
        <time>2011-05-18T16:20:11Z</time>
      </trkpt>
      <trkpt lat="59.3073687" lon="18.1548425">
        <ele>19.8444</ele>
        <time>2011-05-18T16:20:18Z</time>
      </trkpt>
      <trkpt lat="59.307325" lon="18.1557597">
        <ele>21.2864</ele>
        <time>2011-05-18T16:20:26Z</time>
      </trkpt>
      <trkpt lat="59.3072905" lon="18.1566481">
        <ele>22.7283</ele>
        <time>2011-05-18T16:20:34Z</time>
      </trkpt>
      <trkpt lat="59.30723" lon="18.1577239">
        <ele>25.1317</ele>
        <time>2011-05-18T16:20:45Z</time>
      </trkpt>
      <trkpt lat="59.3071901" lon="18.1584492">
        <ele>27.5349</ele>
        <time>2011-05-18T16:20:53Z</time>
      </trkpt>
      <trkpt lat="59.3071797" lon="18.1588987">
        <ele>28.9769</ele>
        <time>2011-05-18T16:20:58Z</time>
      </trkpt>
      <trkpt lat="59.3071666" lon="18.1591631">
        <ele>29.9381</ele>
        <time>2011-05-18T16:21:01Z</time>
      </trkpt>
      <trkpt lat="59.3071622" lon="18.1597939">
        <ele>31.3801</ele>
        <time>2011-05-18T16:21:08Z</time>
      </trkpt>
      <trkpt lat="59.3072222" lon="18.1602214">
        <ele>32.3416</ele>
        <time>2011-05-18T16:21:13Z</time>
      </trkpt>
      <trkpt lat="59.3072893" lon="18.1610724">
        <ele>35.2255</ele>
        <time>2011-05-18T16:21:23Z</time>
      </trkpt>
      <trkpt lat="59.3073905" lon="18.1617982">
        <ele>36.1868</ele>
        <time>2011-05-18T16:21:32Z</time>
      </trkpt>
      <trkpt lat="59.3074119" lon="18.1619607">
        <ele>36.1868</ele>
        <time>2011-05-18T16:21:34Z</time>
      </trkpt>
      <trkpt lat="59.3075806" lon="18.1627641">
        <ele>38.1094</ele>
        <time>2011-05-18T16:21:44Z</time>
      </trkpt>
      <trkpt lat="59.3076607" lon="18.1630745">
        <ele>39.0707</ele>
        <time>2011-05-18T16:21:48Z</time>
      </trkpt>
      <trkpt lat="59.3078515" lon="18.1637706">
        <ele>40.0321</ele>
        <time>2011-05-18T16:21:57Z</time>
      </trkpt>
      <trkpt lat="59.3079981" lon="18.1642972">
        <ele>40.0321</ele>
        <time>2011-05-18T16:22:04Z</time>
      </trkpt>
      <trkpt lat="59.3082193" lon="18.165031">
        <ele>39.5513</ele>
        <time>2011-05-18T16:22:13Z</time>
      </trkpt>
      <trkpt lat="59.3084841" lon="18.1659304">
        <ele>38.5901</ele>
        <time>2011-05-18T16:22:24Z</time>
      </trkpt>
      <trkpt lat="59.3086161" lon="18.1663711">
        <ele>38.5901</ele>
        <time>2011-05-18T16:22:29Z</time>
      </trkpt>
      <trkpt lat="59.3088159" lon="18.1671518">
        <ele>37.6287</ele>
        <time>2011-05-18T16:22:36Z</time>
      </trkpt>
      <trkpt lat="59.3089749" lon="18.1680149">
        <ele>37.6287</ele>
        <time>2011-05-18T16:22:43Z</time>
      </trkpt>
      <trkpt lat="59.3090315" lon="18.1688388">
        <ele>37.1481</ele>
        <time>2011-05-18T16:22:49Z</time>
      </trkpt>
      <trkpt lat="59.3090334" lon="18.16952">
        <ele>37.1481</ele>
        <time>2011-05-18T16:22:54Z</time>
      </trkpt>
      <trkpt lat="59.3089296" lon="18.1707851">
        <ele>36.6675</ele>
        <time>2011-05-18T16:23:03Z</time>
      </trkpt>
      <trkpt lat="59.308885" lon="18.1715171">
        <ele>36.6675</ele>
        <time>2011-05-18T16:23:08Z</time>
      </trkpt>
      <trkpt lat="59.3088229" lon="18.172692">
        <ele>35.2255</ele>
        <time>2011-05-18T16:23:16Z</time>
      </trkpt>
      <trkpt lat="59.3088519" lon="18.1737303">
        <ele>34.2642</ele>
        <time>2011-05-18T16:23:23Z</time>
      </trkpt>
      <trkpt lat="59.3089077" lon="18.1749109">
        <ele>32.8223</ele>
        <time>2011-05-18T16:23:31Z</time>
      </trkpt>
      <trkpt lat="59.3089295" lon="18.1759747">
        <ele>28.9769</ele>
        <time>2011-05-18T16:23:38Z</time>
      </trkpt>
      <trkpt lat="59.3089244" lon="18.1762921">
        <ele>27.0543</ele>
        <time>2011-05-18T16:23:40Z</time>
      </trkpt>
      <trkpt lat="59.3088021" lon="18.1770489">
        <ele>25.6123</ele>
        <time>2011-05-18T16:23:45Z</time>
      </trkpt>
      <trkpt lat="59.3087361" lon="18.1773255">
        <ele>25.1317</ele>
        <time>2011-05-18T16:23:47Z</time>
      </trkpt>
      <trkpt lat="59.3086933" lon="18.178011">
        <ele>25.1317</ele>
        <time>2011-05-18T16:23:52Z</time>
      </trkpt>
      <trkpt lat="59.308814" lon="18.1786185">
        <ele>24.651</ele>
        <time>2011-05-18T16:23:56Z</time>
      </trkpt>
      <trkpt lat="59.3090433" lon="18.1795344">
        <ele>24.1703</ele>
        <time>2011-05-18T16:24:03Z</time>
      </trkpt>
      <trkpt lat="59.3090948" lon="18.1803786">
        <ele>24.1703</ele>
        <time>2011-05-18T16:24:09Z</time>
      </trkpt>
      <trkpt lat="59.3091273" lon="18.1811215">
        <ele>23.209</ele>
        <time>2011-05-18T16:24:14Z</time>
      </trkpt>
      <trkpt lat="59.3090079" lon="18.1817733">
        <ele>21.767</ele>
        <time>2011-05-18T16:24:19Z</time>
      </trkpt>
      <trkpt lat="59.308986" lon="18.1820591">
        <ele>20.8057</ele>
        <time>2011-05-18T16:24:21Z</time>
      </trkpt>
      <trkpt lat="59.3089553" lon="18.1822928">
        <ele>20.325</ele>
        <time>2011-05-18T16:24:23Z</time>
      </trkpt>
      <trkpt lat="59.3090205" lon="18.1826818">
        <ele>22.2476</ele>
        <time>2011-05-18T16:24:27Z</time>
      </trkpt>
      <trkpt lat="59.3090715" lon="18.1830458">
        <ele>24.1703</ele>
        <time>2011-05-18T16:24:31Z</time>
      </trkpt>
      <trkpt lat="59.3090718" lon="18.1831449">
        <ele>24.651</ele>
        <time>2011-05-18T16:24:32Z</time>
      </trkpt>
      <trkpt lat="59.3090474" lon="18.1840094">
        <ele>26.0929</ele>
        <time>2011-05-18T16:24:40Z</time>
      </trkpt>
      <trkpt lat="59.3090403" lon="18.1843533">
        <ele>26.5736</ele>
        <time>2011-05-18T16:24:43Z</time>
      </trkpt>
      <trkpt lat="59.309006" lon="18.1846746">
        <ele>27.0543</ele>
        <time>2011-05-18T16:24:46Z</time>
      </trkpt>
      <trkpt lat="59.3089847" lon="18.1850376">
        <ele>26.5736</ele>
        <time>2011-05-18T16:24:49Z</time>
      </trkpt>
      <trkpt lat="59.3090414" lon="18.185687">
        <ele>28.9769</ele>
        <time>2011-05-18T16:24:55Z</time>
      </trkpt>
      <trkpt lat="59.3090536" lon="18.1857684">
        <ele>29.9381</ele>
        <time>2011-05-18T16:24:56Z</time>
      </trkpt>
      <trkpt lat="59.3090759" lon="18.1864294">
        <ele>31.8607</ele>
        <time>2011-05-18T16:25:04Z</time>
      </trkpt>
      <trkpt lat="59.3090633" lon="18.1872423">
        <ele>33.7834</ele>
        <time>2011-05-18T16:25:13Z</time>
      </trkpt>
      <trkpt lat="59.3090514" lon="18.1881074">
        <ele>36.1868</ele>
        <time>2011-05-18T16:25:23Z</time>
      </trkpt>
      <trkpt lat="59.3090448" lon="18.1887783">
        <ele>36.6675</ele>
        <time>2011-05-18T16:25:30Z</time>
      </trkpt>
      <trkpt lat="59.3090909" lon="18.1894822">
        <ele>36.6675</ele>
        <time>2011-05-18T16:25:36Z</time>
      </trkpt>
      <trkpt lat="59.3091712" lon="18.1903289">
        <ele>33.7834</ele>
        <time>2011-05-18T16:25:42Z</time>
      </trkpt>
      <trkpt lat="59.3092995" lon="18.1914967">
        <ele>30.4188</ele>
        <time>2011-05-18T16:25:49Z</time>
      </trkpt>
      <trkpt lat="59.3094683" lon="18.1930167">
        <ele>28.4962</ele>
        <time>2011-05-18T16:25:58Z</time>
      </trkpt>
      <trkpt lat="59.3095945" lon="18.1940706">
        <ele>27.0543</ele>
        <time>2011-05-18T16:26:05Z</time>
      </trkpt>
      <trkpt lat="59.3096682" lon="18.194982">
        <ele>27.0543</ele>
        <time>2011-05-18T16:26:11Z</time>
      </trkpt>
      <trkpt lat="59.3097923" lon="18.1958602">
        <ele>26.5736</ele>
        <time>2011-05-18T16:26:17Z</time>
      </trkpt>
      <trkpt lat="59.3099282" lon="18.1969517">
        <ele>25.1317</ele>
        <time>2011-05-18T16:26:24Z</time>
      </trkpt>
      <trkpt lat="59.310072" lon="18.1982806">
        <ele>22.7283</ele>
        <time>2011-05-18T16:26:32Z</time>
      </trkpt>
      <trkpt lat="59.3101422" lon="18.1993394">
        <ele>20.8057</ele>
        <time>2011-05-18T16:26:39Z</time>
      </trkpt>
      <trkpt lat="59.310133" lon="18.1997666">
        <ele>19.8444</ele>
        <time>2011-05-18T16:26:43Z</time>
      </trkpt>
      <trkpt lat="59.3101102" lon="18.2000412">
        <ele>19.8444</ele>
        <time>2011-05-18T16:26:46Z</time>
      </trkpt>
      <trkpt lat="59.3102525" lon="18.2005811">
        <ele>19.8444</ele>
        <time>2011-05-18T16:26:52Z</time>
      </trkpt>
      <trkpt lat="59.3103839" lon="18.2010608">
        <ele>21.767</ele>
        <time>2011-05-18T16:26:57Z</time>
      </trkpt>
      <trkpt lat="59.3105022" lon="18.2020702">
        <ele>25.6123</ele>
        <time>2011-05-18T16:27:07Z</time>
      </trkpt>
      <trkpt lat="59.3105887" lon="18.2028031">
        <ele>28.0155</ele>
        <time>2011-05-18T16:27:15Z</time>
      </trkpt>
      <trkpt lat="59.3107041" lon="18.2038218">
        <ele>30.8995</ele>
        <time>2011-05-18T16:27:27Z</time>
      </trkpt>
      <trkpt lat="59.3107957" lon="18.2046641">
        <ele>33.7834</ele>
        <time>2011-05-18T16:27:37Z</time>
      </trkpt>
      <trkpt lat="59.3108917" lon="18.2054404">
        <ele>35.7061</ele>
        <time>2011-05-18T16:27:46Z</time>
      </trkpt>
      <trkpt lat="59.3109394" lon="18.205731">
        <ele>35.7061</ele>
        <time>2011-05-18T16:27:49Z</time>
      </trkpt>
      <trkpt lat="59.3111108" lon="18.2064682">
        <ele>34.7449</ele>
        <time>2011-05-18T16:27:56Z</time>
      </trkpt>
      <trkpt lat="59.3113259" lon="18.2071624">
        <ele>33.3029</ele>
        <time>2011-05-18T16:28:02Z</time>
      </trkpt>
      <trkpt lat="59.311443" lon="18.2075245">
        <ele>31.3801</ele>
        <time>2011-05-18T16:28:05Z</time>
      </trkpt>
      <trkpt lat="59.3117143" lon="18.2080403">
        <ele>28.9769</ele>
        <time>2011-05-18T16:28:10Z</time>
      </trkpt>
      <trkpt lat="59.3120256" lon="18.2087226">
        <ele>26.0929</ele>
        <time>2011-05-18T16:28:16Z</time>
      </trkpt>
      <trkpt lat="59.3123402" lon="18.2095186">
        <ele>24.1703</ele>
        <time>2011-05-18T16:28:22Z</time>
      </trkpt>
      <trkpt lat="59.3125754" lon="18.2101921">
        <ele>22.2476</ele>
        <time>2011-05-18T16:28:27Z</time>
      </trkpt>
      <trkpt lat="59.3128892" lon="18.2111336">
        <ele>18.4023</ele>
        <time>2011-05-18T16:28:33Z</time>
      </trkpt>
      <trkpt lat="59.3132327" lon="18.2120503">
        <ele>18.8831</ele>
        <time>2011-05-18T16:28:39Z</time>
      </trkpt>
      <trkpt lat="59.3135242" lon="18.2126056">
        <ele>21.2864</ele>
        <time>2011-05-18T16:28:44Z</time>
      </trkpt>
      <trkpt lat="59.3136314" lon="18.2127771">
        <ele>22.2476</ele>
        <time>2011-05-18T16:28:46Z</time>
      </trkpt>
      <trkpt lat="59.3138076" lon="18.2131462">
        <ele>23.209</ele>
        <time>2011-05-18T16:28:50Z</time>
      </trkpt>
      <trkpt lat="59.3139563" lon="18.2137334">
        <ele>22.7283</ele>
        <time>2011-05-18T16:28:55Z</time>
      </trkpt>
      <trkpt lat="59.3139915" lon="18.2143833">
        <ele>24.1703</ele>
        <time>2011-05-18T16:29:00Z</time>
      </trkpt>
      <trkpt lat="59.3139971" lon="18.2150297">
        <ele>26.5736</ele>
        <time>2011-05-18T16:29:06Z</time>
      </trkpt>
      <trkpt lat="59.3140035" lon="18.2157451">
        <ele>28.9769</ele>
        <time>2011-05-18T16:29:14Z</time>
      </trkpt>
      <trkpt lat="59.3139937" lon="18.216575">
        <ele>30.4188</ele>
        <time>2011-05-18T16:29:23Z</time>
      </trkpt>
      <trkpt lat="59.3139802" lon="18.2173755">
        <ele>29.4575</ele>
        <time>2011-05-18T16:29:30Z</time>
      </trkpt>
      <trkpt lat="59.3140159" lon="18.2182937">
        <ele>28.0155</ele>
        <time>2011-05-18T16:29:37Z</time>
      </trkpt>
      <trkpt lat="59.3140543" lon="18.219501">
        <ele>28.0155</ele>
        <time>2011-05-18T16:29:46Z</time>
      </trkpt>
      <trkpt lat="59.3140728" lon="18.220421">
        <ele>29.9381</ele>
        <time>2011-05-18T16:29:54Z</time>
      </trkpt>
      <trkpt lat="59.3141017" lon="18.2217121">
        <ele>30.8995</ele>
        <time>2011-05-18T16:30:06Z</time>
      </trkpt>
      <trkpt lat="59.3141258" lon="18.2228311">
        <ele>29.4575</ele>
        <time>2011-05-18T16:30:15Z</time>
      </trkpt>
      <trkpt lat="59.3141573" lon="18.2240216">
        <ele>26.0929</ele>
        <time>2011-05-18T16:30:23Z</time>
      </trkpt>
      <trkpt lat="59.3141464" lon="18.2253299">
        <ele>24.651</ele>
        <time>2011-05-18T16:30:31Z</time>
      </trkpt>
      <trkpt lat="59.3140577" lon="18.2259282">
        <ele>24.651</ele>
        <time>2011-05-18T16:30:35Z</time>
      </trkpt>
      <trkpt lat="59.3138383" lon="18.2267261">
        <ele>24.1703</ele>
        <time>2011-05-18T16:30:41Z</time>
      </trkpt>
      <trkpt lat="59.3135574" lon="18.227645">
        <ele>21.767</ele>
        <time>2011-05-18T16:30:48Z</time>
      </trkpt>
      <trkpt lat="59.3133213" lon="18.2285416">
        <ele>21.2864</ele>
        <time>2011-05-18T16:30:55Z</time>
      </trkpt>
      <trkpt lat="59.3131896" lon="18.2287573">
        <ele>21.2864</ele>
        <time>2011-05-18T16:30:59Z</time>
      </trkpt>
      <trkpt lat="59.3131673" lon="18.2289342">
        <ele>21.2864</ele>
        <time>2011-05-18T16:31:03Z</time>
      </trkpt>
      <trkpt lat="59.3132808" lon="18.2290202">
        <ele>21.2864</ele>
        <time>2011-05-18T16:31:07Z</time>
      </trkpt>
      <trkpt lat="59.3134745" lon="18.2289529">
        <ele>21.2864</ele>
        <time>2011-05-18T16:31:13Z</time>
      </trkpt>
      <trkpt lat="59.3135557" lon="18.2288914">
        <ele>21.2864</ele>
        <time>2011-05-18T16:31:15Z</time>
      </trkpt>
      <trkpt lat="59.3138411" lon="18.2287924">
        <ele>21.767</ele>
        <time>2011-05-18T16:31:21Z</time>
      </trkpt>
      <trkpt lat="59.3140179" lon="18.2287845">
        <ele>21.2864</ele>
        <time>2011-05-18T16:31:24Z</time>
      </trkpt>
      <trkpt lat="59.3144295" lon="18.2286254">
        <ele>20.325</ele>
        <time>2011-05-18T16:31:31Z</time>
      </trkpt>
      <trkpt lat="59.3147844" lon="18.2285192">
        <ele>19.8444</ele>
        <time>2011-05-18T16:31:37Z</time>
      </trkpt>
      <trkpt lat="59.3149721" lon="18.2286255">
        <ele>19.3638</ele>
        <time>2011-05-18T16:31:41Z</time>
      </trkpt>
      <trkpt lat="59.3150724" lon="18.2289961">
        <ele>20.325</ele>
        <time>2011-05-18T16:31:45Z</time>
      </trkpt>
      <trkpt lat="59.315081" lon="18.2291032">
        <ele>20.325</ele>
        <time>2011-05-18T16:31:46Z</time>
      </trkpt>
      <trkpt lat="59.3151827" lon="18.229956">
        <ele>21.767</ele>
        <time>2011-05-18T16:31:54Z</time>
      </trkpt>
      <trkpt lat="59.3153399" lon="18.2309338">
        <ele>23.209</ele>
        <time>2011-05-18T16:32:03Z</time>
      </trkpt>
      <trkpt lat="59.3154476" lon="18.2316279">
        <ele>25.1317</ele>
        <time>2011-05-18T16:32:10Z</time>
      </trkpt>
      <trkpt lat="59.3156347" lon="18.2327889">
        <ele>28.0155</ele>
        <time>2011-05-18T16:32:23Z</time>
      </trkpt>
      <trkpt lat="59.3157613" lon="18.2336337">
        <ele>28.9769</ele>
        <time>2011-05-18T16:32:33Z</time>
      </trkpt>
      <trkpt lat="59.3158055" lon="18.2336591">
        <ele>28.9769</ele>
        <time>2011-05-18T16:32:38Z</time>
      </trkpt>
      <trkpt lat="59.3158618" lon="18.2336164">
        <ele>28.4962</ele>
        <time>2011-05-18T16:32:43Z</time>
      </trkpt>
      <trkpt lat="59.31595" lon="18.2338579">
        <ele>28.9769</ele>
        <time>2011-05-18T16:32:48Z</time>
      </trkpt>
      <trkpt lat="59.3159553" lon="18.2341844">
        <ele>29.4575</ele>
        <time>2011-05-18T16:32:52Z</time>
      </trkpt>
      <trkpt lat="59.3160877" lon="18.2350544">
        <ele>29.9381</ele>
        <time>2011-05-18T16:33:01Z</time>
      </trkpt>
      <trkpt lat="59.3162038" lon="18.2357772">
        <ele>30.8995</ele>
        <time>2011-05-18T16:33:08Z</time>
      </trkpt>
      <trkpt lat="59.3163417" lon="18.2364919">
        <ele>32.3416</ele>
        <time>2011-05-18T16:33:15Z</time>
      </trkpt>
      <trkpt lat="59.3165147" lon="18.2371128">
        <ele>35.2255</ele>
        <time>2011-05-18T16:33:22Z</time>
      </trkpt>
      <trkpt lat="59.3167949" lon="18.2377747">
        <ele>37.6287</ele>
        <time>2011-05-18T16:33:31Z</time>
      </trkpt>
      <trkpt lat="59.3171653" lon="18.2385181">
        <ele>38.5901</ele>
        <time>2011-05-18T16:33:41Z</time>
      </trkpt>
      <trkpt lat="59.3174419" lon="18.239106">
        <ele>39.5513</ele>
        <time>2011-05-18T16:33:48Z</time>
      </trkpt>
      <trkpt lat="59.3177475" lon="18.2398846">
        <ele>40.0321</ele>
        <time>2011-05-18T16:33:56Z</time>
      </trkpt>
      <trkpt lat="59.3179838" lon="18.2406195">
        <ele>40.0321</ele>
        <time>2011-05-18T16:34:03Z</time>
      </trkpt>
      <trkpt lat="59.3182936" lon="18.2415857">
        <ele>41.474</ele>
        <time>2011-05-18T16:34:12Z</time>
      </trkpt>
      <trkpt lat="59.3186396" lon="18.2426404">
        <ele>42.4354</ele>
        <time>2011-05-18T16:34:22Z</time>
      </trkpt>
      <trkpt lat="59.3187641" lon="18.2429237">
        <ele>42.4354</ele>
        <time>2011-05-18T16:34:25Z</time>
      </trkpt>
      <trkpt lat="59.3188976" lon="18.243363">
        <ele>41.474</ele>
        <time>2011-05-18T16:34:30Z</time>
      </trkpt>
      <trkpt lat="59.3189192" lon="18.2434256">
        <ele>41.474</ele>
        <time>2011-05-18T16:34:31Z</time>
      </trkpt>
      <trkpt lat="59.319112" lon="18.2441298">
        <ele>40.5128</ele>
        <time>2011-05-18T16:34:39Z</time>
      </trkpt>
      <trkpt lat="59.3193092" lon="18.2447493">
        <ele>40.0321</ele>
        <time>2011-05-18T16:34:45Z</time>
      </trkpt>
      <trkpt lat="59.3195835" lon="18.2456955">
        <ele>39.0707</ele>
        <time>2011-05-18T16:34:53Z</time>
      </trkpt>
      <trkpt lat="59.3198879" lon="18.2469278">
        <ele>38.1094</ele>
        <time>2011-05-18T16:35:02Z</time>
      </trkpt>
      <trkpt lat="59.3201881" lon="18.2482365">
        <ele>35.7061</ele>
        <time>2011-05-18T16:35:11Z</time>
      </trkpt>
      <trkpt lat="59.320268" lon="18.248482">
        <ele>34.7449</ele>
        <time>2011-05-18T16:35:13Z</time>
      </trkpt>
      <trkpt lat="59.3203984" lon="18.2490849">
        <ele>33.7834</ele>
        <time>2011-05-18T16:35:18Z</time>
      </trkpt>
      <trkpt lat="59.3204618" lon="18.2495019">
        <ele>33.3029</ele>
        <time>2011-05-18T16:35:22Z</time>
      </trkpt>
      <trkpt lat="59.3206665" lon="18.2503587">
        <ele>31.8607</ele>
        <time>2011-05-18T16:35:29Z</time>
      </trkpt>
      <trkpt lat="59.3209436" lon="18.2514894">
        <ele>29.9381</ele>
        <time>2011-05-18T16:35:37Z</time>
      </trkpt>
      <trkpt lat="59.3212987" lon="18.2528421">
        <ele>30.4188</ele>
        <time>2011-05-18T16:35:47Z</time>
      </trkpt>
      <trkpt lat="59.3214229" lon="18.2533232">
        <ele>29.9381</ele>
        <time>2011-05-18T16:35:51Z</time>
      </trkpt>
      <trkpt lat="59.3215311" lon="18.2535554">
        <ele>29.4575</ele>
        <time>2011-05-18T16:35:54Z</time>
      </trkpt>
      <trkpt lat="59.3217072" lon="18.2541353">
        <ele>29.9381</ele>
        <time>2011-05-18T16:36:00Z</time>
      </trkpt>
      <trkpt lat="59.321773" lon="18.2544868">
        <ele>29.4575</ele>
        <time>2011-05-18T16:36:04Z</time>
      </trkpt>
      <trkpt lat="59.321931" lon="18.255061">
        <ele>29.9381</ele>
        <time>2011-05-18T16:36:11Z</time>
      </trkpt>
      <trkpt lat="59.3220976" lon="18.2556739">
        <ele>30.4188</ele>
        <time>2011-05-18T16:36:17Z</time>
      </trkpt>
      <trkpt lat="59.3222143" lon="18.255866">
        <ele>30.4188</ele>
        <time>2011-05-18T16:36:21Z</time>
      </trkpt>
      <trkpt lat="59.3222771" lon="18.2560936">
        <ele>30.8995</ele>
        <time>2011-05-18T16:36:25Z</time>
      </trkpt>
      <trkpt lat="59.3223893" lon="18.2567172">
        <ele>30.8995</ele>
        <time>2011-05-18T16:36:32Z</time>
      </trkpt>
      <trkpt lat="59.3226175" lon="18.2576834">
        <ele>30.4188</ele>
        <time>2011-05-18T16:36:41Z</time>
      </trkpt>
      <trkpt lat="59.3228418" lon="18.258541">
        <ele>31.3801</ele>
        <time>2011-05-18T16:36:48Z</time>
      </trkpt>
      <trkpt lat="59.3230606" lon="18.2592898">
        <ele>31.3801</ele>
        <time>2011-05-18T16:36:55Z</time>
      </trkpt>
      <trkpt lat="59.3232134" lon="18.2597653">
        <ele>33.7834</ele>
        <time>2011-05-18T16:37:00Z</time>
      </trkpt>
      <trkpt lat="59.3233617" lon="18.2602922">
        <ele>32.8223</ele>
        <time>2011-05-18T16:37:05Z</time>
      </trkpt>
      <trkpt lat="59.3235831" lon="18.2610856">
        <ele>30.8995</ele>
        <time>2011-05-18T16:37:12Z</time>
      </trkpt>
      <trkpt lat="59.3237511" lon="18.2620062">
        <ele>27.0543</ele>
        <time>2011-05-18T16:37:19Z</time>
      </trkpt>
      <trkpt lat="59.3238824" lon="18.2626382">
        <ele>24.1703</ele>
        <time>2011-05-18T16:37:24Z</time>
      </trkpt>
      <trkpt lat="59.3240531" lon="18.2634893">
        <ele>21.767</ele>
        <time>2011-05-18T16:37:30Z</time>
      </trkpt>
      <trkpt lat="59.3242615" lon="18.2645078">
        <ele>18.8831</ele>
        <time>2011-05-18T16:37:37Z</time>
      </trkpt>
      <trkpt lat="59.324572" lon="18.2660488">
        <ele>13.1151</ele>
        <time>2011-05-18T16:37:47Z</time>
      </trkpt>
      <trkpt lat="59.3248101" lon="18.2671961">
        <ele>10.7118</ele>
        <time>2011-05-18T16:37:54Z</time>
      </trkpt>
      <trkpt lat="59.3250417" lon="18.2684677">
        <ele>10.7118</ele>
        <time>2011-05-18T16:38:02Z</time>
      </trkpt>
      <trkpt lat="59.3250759" lon="18.2686072">
        <ele>10.7118</ele>
        <time>2011-05-18T16:38:03Z</time>
      </trkpt>
      <trkpt lat="59.3252896" lon="18.2699178">
        <ele>10.2312</ele>
        <time>2011-05-18T16:38:12Z</time>
      </trkpt>
      <trkpt lat="59.3254747" lon="18.2710305">
        <ele>11.1925</ele>
        <time>2011-05-18T16:38:20Z</time>
      </trkpt>
      <trkpt lat="59.3255464" lon="18.2714557">
        <ele>11.1925</ele>
        <time>2011-05-18T16:38:24Z</time>
      </trkpt>
      <trkpt lat="59.325582" lon="18.271589">
        <ele>11.1925</ele>
        <time>2011-05-18T16:38:26Z</time>
      </trkpt>
      <trkpt lat="59.3256554" lon="18.2717609">
        <ele>12.6344</ele>
        <time>2011-05-18T16:38:31Z</time>
      </trkpt>
      <trkpt lat="59.3257126" lon="18.272068">
        <ele>16.4797</ele>
        <time>2011-05-18T16:38:39Z</time>
      </trkpt>
      <trkpt lat="59.3258063" lon="18.2722776">
        <ele>17.4412</ele>
        <time>2011-05-18T16:38:43Z</time>
      </trkpt>
      <trkpt lat="59.3258944" lon="18.2725969">
        <ele>16.9604</ele>
        <time>2011-05-18T16:38:47Z</time>
      </trkpt>
      <trkpt lat="59.3258902" lon="18.2727969">
        <ele>16.9604</ele>
        <time>2011-05-18T16:38:49Z</time>
      </trkpt>
      <trkpt lat="59.3259683" lon="18.2733028">
        <ele>17.4412</ele>
        <time>2011-05-18T16:38:54Z</time>
      </trkpt>
      <trkpt lat="59.3261352" lon="18.2739708">
        <ele>20.325</ele>
        <time>2011-05-18T16:39:01Z</time>
      </trkpt>
      <trkpt lat="59.3262673" lon="18.2744633">
        <ele>18.4023</ele>
        <time>2011-05-18T16:39:06Z</time>
      </trkpt>
      <trkpt lat="59.3265148" lon="18.2753128">
        <ele>18.4023</ele>
        <time>2011-05-18T16:39:14Z</time>
      </trkpt>
      <trkpt lat="59.3267483" lon="18.2761738">
        <ele>16.9604</ele>
        <time>2011-05-18T16:39:22Z</time>
      </trkpt>
      <trkpt lat="59.3267807" lon="18.2762862">
        <ele>16.4797</ele>
        <time>2011-05-18T16:39:23Z</time>
      </trkpt>
      <trkpt lat="59.3269906" lon="18.2768276">
        <ele>15.0377</ele>
        <time>2011-05-18T16:39:28Z</time>
      </trkpt>
      <trkpt lat="59.3272661" lon="18.2776043">
        <ele>13.5958</ele>
        <time>2011-05-18T16:39:35Z</time>
      </trkpt>
      <trkpt lat="59.3275288" lon="18.2783648">
        <ele>12.6344</ele>
        <time>2011-05-18T16:39:42Z</time>
      </trkpt>
      <trkpt lat="59.3277823" lon="18.2789475">
        <ele>13.1151</ele>
        <time>2011-05-18T16:39:48Z</time>
      </trkpt>
      <trkpt lat="59.328033" lon="18.2795404">
        <ele>13.1151</ele>
        <time>2011-05-18T16:39:54Z</time>
      </trkpt>
      <trkpt lat="59.3284086" lon="18.2804934">
        <ele>14.0764</ele>
        <time>2011-05-18T16:40:03Z</time>
      </trkpt>
      <trkpt lat="59.3287815" lon="18.2813039">
        <ele>13.5958</ele>
        <time>2011-05-18T16:40:11Z</time>
      </trkpt>
      <trkpt lat="59.3289521" lon="18.2816606">
        <ele>14.0764</ele>
        <time>2011-05-18T16:40:15Z</time>
      </trkpt>
      <trkpt lat="59.3290245" lon="18.2819049">
        <ele>13.5958</ele>
        <time>2011-05-18T16:40:18Z</time>
      </trkpt>
      <trkpt lat="59.3290955" lon="18.2820925">
        <ele>14.0764</ele>
        <time>2011-05-18T16:40:22Z</time>
      </trkpt>
      <trkpt lat="59.3291419" lon="18.2822629">
        <ele>13.1151</ele>
        <time>2011-05-18T16:40:30Z</time>
      </trkpt>
      <trkpt lat="59.3291837" lon="18.2824734">
        <ele>13.1151</ele>
        <time>2011-05-18T16:40:35Z</time>
      </trkpt>
      <trkpt lat="59.3293225" lon="18.2827924">
        <ele>13.5958</ele>
        <time>2011-05-18T16:40:41Z</time>
      </trkpt>
      <trkpt lat="59.3295413" lon="18.2832431">
        <ele>14.0764</ele>
        <time>2011-05-18T16:40:48Z</time>
      </trkpt>
      <trkpt lat="59.3296213" lon="18.283359">
        <ele>14.0764</ele>
        <time>2011-05-18T16:40:50Z</time>
      </trkpt>
      <trkpt lat="59.3300229" lon="18.2836953">
        <ele>14.0764</ele>
        <time>2011-05-18T16:40:58Z</time>
      </trkpt>
      <trkpt lat="59.3304378" lon="18.2838881">
        <ele>16.9604</ele>
        <time>2011-05-18T16:41:05Z</time>
      </trkpt>
      <trkpt lat="59.3308113" lon="18.2839543">
        <ele>18.4023</ele>
        <time>2011-05-18T16:41:10Z</time>
      </trkpt>
      <trkpt lat="59.3313713" lon="18.2839776">
        <ele>26.0929</ele>
        <time>2011-05-18T16:41:17Z</time>
      </trkpt>
      <trkpt lat="59.3318518" lon="18.2839116">
        <ele>21.2864</ele>
        <time>2011-05-18T16:41:23Z</time>
      </trkpt>
      <trkpt lat="59.3322491" lon="18.283976">
        <ele>20.325</ele>
        <time>2011-05-18T16:41:29Z</time>
      </trkpt>
      <trkpt lat="59.3326237" lon="18.2842448">
        <ele>19.3638</ele>
        <time>2011-05-18T16:41:35Z</time>
      </trkpt>
      <trkpt lat="59.3328839" lon="18.2845345">
        <ele>17.9218</ele>
        <time>2011-05-18T16:41:40Z</time>
      </trkpt>
      <trkpt lat="59.3330591" lon="18.2849608">
        <ele>16.9604</ele>
        <time>2011-05-18T16:41:45Z</time>
      </trkpt>
      <trkpt lat="59.3330942" lon="18.2850566">
        <ele>16.4797</ele>
        <time>2011-05-18T16:41:46Z</time>
      </trkpt>
      <trkpt lat="59.3334589" lon="18.2858433">
        <ele>11.6732</ele>
        <time>2011-05-18T16:41:54Z</time>
      </trkpt>
      <trkpt lat="59.3335538" lon="18.2860143">
        <ele>10.2312</ele>
        <time>2011-05-18T16:41:56Z</time>
      </trkpt>
      <trkpt lat="59.3336696" lon="18.2863965">
        <ele>8.30859</ele>
        <time>2011-05-18T16:42:00Z</time>
      </trkpt>
      <trkpt lat="59.3337804" lon="18.2871899">
        <ele>6.86646</ele>
        <time>2011-05-18T16:42:06Z</time>
      </trkpt>
      <trkpt lat="59.3338156" lon="18.287474">
        <ele>6.38586</ele>
        <time>2011-05-18T16:42:08Z</time>
      </trkpt>
      <trkpt lat="59.3339617" lon="18.2880942">
        <ele>5.42456</ele>
        <time>2011-05-18T16:42:13Z</time>
      </trkpt>
      <trkpt lat="59.3339825" lon="18.2882273">
        <ele>5.42456</ele>
        <time>2011-05-18T16:42:14Z</time>
      </trkpt>
      <trkpt lat="59.3340135" lon="18.2885013">
        <ele>4.94385</ele>
        <time>2011-05-18T16:42:16Z</time>
      </trkpt>
      <trkpt lat="59.3340437" lon="18.289192">
        <ele>5.42456</ele>
        <time>2011-05-18T16:42:21Z</time>
      </trkpt>
      <trkpt lat="59.3342742" lon="18.2908334">
        <ele>5.42456</ele>
        <time>2011-05-18T16:42:33Z</time>
      </trkpt>
      <trkpt lat="59.3343365" lon="18.2910956">
        <ele>5.42456</ele>
        <time>2011-05-18T16:42:35Z</time>
      </trkpt>
      <trkpt lat="59.3346632" lon="18.292027">
        <ele>6.38586</ele>
        <time>2011-05-18T16:42:43Z</time>
      </trkpt>
      <trkpt lat="59.3348018" lon="18.2922659">
        <ele>5.90527</ele>
        <time>2011-05-18T16:42:46Z</time>
      </trkpt>
      <trkpt lat="59.3349663" lon="18.2927152">
        <ele>6.38586</ele>
        <time>2011-05-18T16:42:51Z</time>
      </trkpt>
      <trkpt lat="59.3350004" lon="18.2929315">
        <ele>6.86646</ele>
        <time>2011-05-18T16:42:53Z</time>
      </trkpt>
      <trkpt lat="59.3351859" lon="18.2934982">
        <ele>6.38586</ele>
        <time>2011-05-18T16:42:59Z</time>
      </trkpt>
      <trkpt lat="59.3354582" lon="18.2941899">
        <ele>6.86646</ele>
        <time>2011-05-18T16:43:06Z</time>
      </trkpt>
      <trkpt lat="59.3356201" lon="18.2947702">
        <ele>7.34717</ele>
        <time>2011-05-18T16:43:11Z</time>
      </trkpt>
      <trkpt lat="59.3357013" lon="18.295151">
        <ele>6.86646</ele>
        <time>2011-05-18T16:43:14Z</time>
      </trkpt>
      <trkpt lat="59.3357631" lon="18.2958188">
        <ele>5.90527</ele>
        <time>2011-05-18T16:43:19Z</time>
      </trkpt>
      <trkpt lat="59.3357341" lon="18.2960959">
        <ele>5.42456</ele>
        <time>2011-05-18T16:43:21Z</time>
      </trkpt>
      <trkpt lat="59.335691" lon="18.296368">
        <ele>4.94385</ele>
        <time>2011-05-18T16:43:23Z</time>
      </trkpt>
      <trkpt lat="59.3355486" lon="18.2968528">
        <ele>3.50195</ele>
        <time>2011-05-18T16:43:27Z</time>
      </trkpt>
      <trkpt lat="59.3354801" lon="18.2971201">
        <ele>2.54065</ele>
        <time>2011-05-18T16:43:29Z</time>
      </trkpt>
      <trkpt lat="59.3352708" lon="18.2982327">
        <ele>0</ele>
        <time>2011-05-18T16:43:36Z</time>
      </trkpt>
      <trkpt lat="59.3350177" lon="18.2991859">
        <ele>0</ele>
        <time>2011-05-18T16:43:42Z</time>
      </trkpt>
      <trkpt lat="59.3348035" lon="18.30006">
        <ele>0</ele>
        <time>2011-05-18T16:43:48Z</time>
      </trkpt>
      <trkpt lat="59.3346242" lon="18.3009661">
        <ele>0</ele>
        <time>2011-05-18T16:43:55Z</time>
      </trkpt>
      <trkpt lat="59.3343802" lon="18.3017506">
        <ele>0</ele>
        <time>2011-05-18T16:44:02Z</time>
      </trkpt>
      <trkpt lat="59.3341041" lon="18.3026209">
        <ele>0</ele>
        <time>2011-05-18T16:44:09Z</time>
      </trkpt>
      <trkpt lat="59.3340684" lon="18.3027487">
        <ele>0</ele>
        <time>2011-05-18T16:44:10Z</time>
      </trkpt>
      <trkpt lat="59.3338992" lon="18.3037557">
        <ele>1.09863</ele>
        <time>2011-05-18T16:44:18Z</time>
      </trkpt>
      <trkpt lat="59.3337967" lon="18.3048539">
        <ele>2.06006</ele>
        <time>2011-05-18T16:44:27Z</time>
      </trkpt>
      <trkpt lat="59.3337529" lon="18.3057111">
        <ele>1.09863</ele>
        <time>2011-05-18T16:44:33Z</time>
      </trkpt>
      <trkpt lat="59.3336716" lon="18.3067229">
        <ele>0.137451</ele>
        <time>2011-05-18T16:44:39Z</time>
      </trkpt>
      <trkpt lat="59.3335262" lon="18.3075381">
        <ele>0</ele>
        <time>2011-05-18T16:44:44Z</time>
      </trkpt>
      <trkpt lat="59.3332965" lon="18.3082365">
        <ele>0</ele>
        <time>2011-05-18T16:44:49Z</time>
      </trkpt>
      <trkpt lat="59.3330004" lon="18.3088662">
        <ele>0</ele>
        <time>2011-05-18T16:44:55Z</time>
      </trkpt>
      <trkpt lat="59.3327115" lon="18.3094647">
        <ele>1.09863</ele>
        <time>2011-05-18T16:45:02Z</time>
      </trkpt>
      <trkpt lat="59.3325113" lon="18.3100682">
        <ele>0.618042</ele>
        <time>2011-05-18T16:45:09Z</time>
      </trkpt>
      <trkpt lat="59.3323751" lon="18.3107312">
        <ele>0.137451</ele>
        <time>2011-05-18T16:45:16Z</time>
      </trkpt>
      <trkpt lat="59.332298" lon="18.3116757">
        <ele>3.02124</ele>
        <time>2011-05-18T16:45:25Z</time>
      </trkpt>
      <trkpt lat="59.3322964" lon="18.3123733">
        <ele>5.42456</ele>
        <time>2011-05-18T16:45:32Z</time>
      </trkpt>
      <trkpt lat="59.3323646" lon="18.3130145">
        <ele>8.30859</ele>
        <time>2011-05-18T16:45:39Z</time>
      </trkpt>
      <trkpt lat="59.3324265" lon="18.3132731">
        <ele>8.78918</ele>
        <time>2011-05-18T16:45:42Z</time>
      </trkpt>
      <trkpt lat="59.3324703" lon="18.3138196">
        <ele>9.75061</ele>
        <time>2011-05-18T16:45:48Z</time>
      </trkpt>
      <trkpt lat="59.3324455" lon="18.3140919">
        <ele>9.75061</ele>
        <time>2011-05-18T16:45:51Z</time>
      </trkpt>
      <trkpt lat="59.3324467" lon="18.3143713">
        <ele>9.75061</ele>
        <time>2011-05-18T16:45:55Z</time>
      </trkpt>
      <trkpt lat="59.3324402" lon="18.3147017">
        <ele>8.78918</ele>
        <time>2011-05-18T16:45:59Z</time>
      </trkpt>
      <trkpt lat="59.3324482" lon="18.3152706">
        <ele>8.30859</ele>
        <time>2011-05-18T16:46:04Z</time>
      </trkpt>
      <trkpt lat="59.332468" lon="18.3161543">
        <ele>7.82788</ele>
        <time>2011-05-18T16:46:11Z</time>
      </trkpt>
      <trkpt lat="59.3325021" lon="18.3170057">
        <ele>9.75061</ele>
        <time>2011-05-18T16:46:18Z</time>
      </trkpt>
      <trkpt lat="59.3324698" lon="18.3180269">
        <ele>11.6732</ele>
        <time>2011-05-18T16:46:27Z</time>
      </trkpt>
      <trkpt lat="59.3324356" lon="18.3188385">
        <ele>13.5958</ele>
        <time>2011-05-18T16:46:35Z</time>
      </trkpt>
      <trkpt lat="59.3324076" lon="18.3196334">
        <ele>16.4797</ele>
        <time>2011-05-18T16:46:44Z</time>
      </trkpt>
      <trkpt lat="59.3324556" lon="18.3204367">
        <ele>19.3638</ele>
        <time>2011-05-18T16:46:53Z</time>
      </trkpt>
      <trkpt lat="59.3325666" lon="18.3211111">
        <ele>21.2864</ele>
        <time>2011-05-18T16:47:01Z</time>
      </trkpt>
      <trkpt lat="59.3326886" lon="18.3217384">
        <ele>22.2476</ele>
        <time>2011-05-18T16:47:07Z</time>
      </trkpt>
      <trkpt lat="59.332856" lon="18.322403">
        <ele>20.8057</ele>
        <time>2011-05-18T16:47:12Z</time>
      </trkpt>
      <trkpt lat="59.3330906" lon="18.3233183">
        <ele>18.4023</ele>
        <time>2011-05-18T16:47:18Z</time>
      </trkpt>
      <trkpt lat="59.3333198" lon="18.3244414">
        <ele>15.5184</ele>
        <time>2011-05-18T16:47:25Z</time>
      </trkpt>
      <trkpt lat="59.333454" lon="18.3254096">
        <ele>12.1538</ele>
        <time>2011-05-18T16:47:31Z</time>
      </trkpt>
      <trkpt lat="59.3335077" lon="18.3261735">
        <ele>10.2312</ele>
        <time>2011-05-18T16:47:36Z</time>
      </trkpt>
      <trkpt lat="59.3335574" lon="18.3271318">
        <ele>7.82788</ele>
        <time>2011-05-18T16:47:42Z</time>
      </trkpt>
      <trkpt lat="59.3335393" lon="18.3283201">
        <ele>4.46326</ele>
        <time>2011-05-18T16:47:49Z</time>
      </trkpt>
      <trkpt lat="59.3334768" lon="18.3293657">
        <ele>1.57935</ele>
        <time>2011-05-18T16:47:55Z</time>
      </trkpt>
      <trkpt lat="59.3333972" lon="18.3305176">
        <ele>0</ele>
        <time>2011-05-18T16:48:01Z</time>
      </trkpt>
      <trkpt lat="59.333434" lon="18.3312676">
        <ele>0</ele>
        <time>2011-05-18T16:48:05Z</time>
      </trkpt>
      <trkpt lat="59.3334811" lon="18.3316154">
        <ele>0</ele>
        <time>2011-05-18T16:48:07Z</time>
      </trkpt>
      <trkpt lat="59.333693" lon="18.332345">
        <ele>0</ele>
        <time>2011-05-18T16:48:12Z</time>
      </trkpt>
      <trkpt lat="59.3337741" lon="18.3329648">
        <ele>0</ele>
        <time>2011-05-18T16:48:16Z</time>
      </trkpt>
      <trkpt lat="59.333837" lon="18.3335821">
        <ele>0</ele>
        <time>2011-05-18T16:48:20Z</time>
      </trkpt>
      <trkpt lat="59.3338183" lon="18.3342844">
        <ele>0</ele>
        <time>2011-05-18T16:48:25Z</time>
      </trkpt>
      <trkpt lat="59.3337309" lon="18.3351503">
        <ele>0</ele>
        <time>2011-05-18T16:48:31Z</time>
      </trkpt>
      <trkpt lat="59.3335826" lon="18.3361671">
        <ele>0</ele>
        <time>2011-05-18T16:48:38Z</time>
      </trkpt>
      <trkpt lat="59.3335567" lon="18.3363002">
        <ele>0</ele>
        <time>2011-05-18T16:48:39Z</time>
      </trkpt>
      <trkpt lat="59.3334863" lon="18.3365407">
        <ele>0</ele>
        <time>2011-05-18T16:48:41Z</time>
      </trkpt>
      <trkpt lat="59.333281" lon="18.3372698">
        <ele>0</ele>
        <time>2011-05-18T16:48:47Z</time>
      </trkpt>
      <trkpt lat="59.3330033" lon="18.337744">
        <ele>0</ele>
        <time>2011-05-18T16:48:52Z</time>
      </trkpt>
      <trkpt lat="59.3323648" lon="18.3385493">
        <ele>0</ele>
        <time>2011-05-18T16:49:02Z</time>
      </trkpt>
      <trkpt lat="59.3320763" lon="18.3391932">
        <ele>0</ele>
        <time>2011-05-18T16:49:08Z</time>
      </trkpt>
      <trkpt lat="59.3319725" lon="18.3397599">
        <ele>0</ele>
        <time>2011-05-18T16:49:12Z</time>
      </trkpt>
      <trkpt lat="59.3318676" lon="18.3403371">
        <ele>0</ele>
        <time>2011-05-18T16:49:16Z</time>
      </trkpt>
      <trkpt lat="59.3316888" lon="18.3409483">
        <ele>0</ele>
        <time>2011-05-18T16:49:21Z</time>
      </trkpt>
      <trkpt lat="59.3314858" lon="18.3420012">
        <ele>0</ele>
        <time>2011-05-18T16:49:30Z</time>
      </trkpt>
      <trkpt lat="59.3313758" lon="18.3428487">
        <ele>0</ele>
        <time>2011-05-18T16:49:37Z</time>
      </trkpt>
      <trkpt lat="59.3313591" lon="18.3434103">
        <ele>0</ele>
        <time>2011-05-18T16:49:41Z</time>
      </trkpt>
      <trkpt lat="59.3313084" lon="18.3440831">
        <ele>0</ele>
        <time>2011-05-18T16:49:46Z</time>
      </trkpt>
      <trkpt lat="59.3313501" lon="18.3445035">
        <ele>0</ele>
        <time>2011-05-18T16:49:49Z</time>
      </trkpt>
      <trkpt lat="59.3316107" lon="18.3455078">
        <ele>0</ele>
        <time>2011-05-18T16:49:57Z</time>
      </trkpt>
      <trkpt lat="59.3316451" lon="18.3456295">
        <ele>0</ele>
        <time>2011-05-18T16:49:58Z</time>
      </trkpt>
      <trkpt lat="59.331752" lon="18.3460999">
        <ele>0</ele>
        <time>2011-05-18T16:50:02Z</time>
      </trkpt>
      <trkpt lat="59.3318764" lon="18.3463962">
        <ele>0</ele>
        <time>2011-05-18T16:50:06Z</time>
      </trkpt>
      <trkpt lat="59.3319091" lon="18.3465856">
        <ele>0</ele>
        <time>2011-05-18T16:50:09Z</time>
      </trkpt>
      <trkpt lat="59.3318789" lon="18.3467967">
        <ele>0</ele>
        <time>2011-05-18T16:50:12Z</time>
      </trkpt>
      <trkpt lat="59.3318411" lon="18.34704">
        <ele>0</ele>
        <time>2011-05-18T16:50:15Z</time>
      </trkpt>
      <trkpt lat="59.3318215" lon="18.3475264">
        <ele>0</ele>
        <time>2011-05-18T16:50:20Z</time>
      </trkpt>
      <trkpt lat="59.3317463" lon="18.34768">
        <ele>0</ele>
        <time>2011-05-18T16:50:24Z</time>
      </trkpt>
      <trkpt lat="59.3316324" lon="18.3478014">
        <ele>0</ele>
        <time>2011-05-18T16:50:29Z</time>
      </trkpt>
      <trkpt lat="59.3315339" lon="18.3481336">
        <ele>0</ele>
        <time>2011-05-18T16:50:34Z</time>
      </trkpt>
      <trkpt lat="59.3314214" lon="18.3484732">
        <ele>0</ele>
        <time>2011-05-18T16:50:38Z</time>
      </trkpt>
      <trkpt lat="59.3311421" lon="18.3490583">
        <ele>0</ele>
        <time>2011-05-18T16:50:45Z</time>
      </trkpt>
      <trkpt lat="59.3308445" lon="18.3497394">
        <ele>0</ele>
        <time>2011-05-18T16:50:52Z</time>
      </trkpt>
      <trkpt lat="59.3305076" lon="18.3503845">
        <ele>0</ele>
        <time>2011-05-18T16:50:59Z</time>
      </trkpt>
      <trkpt lat="59.3302269" lon="18.3508983">
        <ele>0</ele>
        <time>2011-05-18T16:51:05Z</time>
      </trkpt>
      <trkpt lat="59.3299229" lon="18.3513992">
        <ele>0.137451</ele>
        <time>2011-05-18T16:51:12Z</time>
      </trkpt>
      <trkpt lat="59.3298427" lon="18.3515815">
        <ele>0.137451</ele>
        <time>2011-05-18T16:51:14Z</time>
      </trkpt>
      <trkpt lat="59.3294887" lon="18.3521988">
        <ele>0</ele>
        <time>2011-05-18T16:51:20Z</time>
      </trkpt>
      <trkpt lat="59.3290884" lon="18.3527615">
        <ele>0</ele>
        <time>2011-05-18T16:51:26Z</time>
      </trkpt>
      <trkpt lat="59.328608" lon="18.3533323">
        <ele>0</ele>
        <time>2011-05-18T16:51:34Z</time>
      </trkpt>
      <trkpt lat="59.3285151" lon="18.3534479">
        <ele>0</ele>
        <time>2011-05-18T16:51:36Z</time>
      </trkpt>
      <trkpt lat="59.3283827" lon="18.3536756">
        <ele>0</ele>
        <time>2011-05-18T16:51:40Z</time>
      </trkpt>
      <trkpt lat="59.328214" lon="18.3541108">
        <ele>1.57935</ele>
        <time>2011-05-18T16:51:48Z</time>
      </trkpt>
      <trkpt lat="59.3279974" lon="18.3547013">
        <ele>3.98267</ele>
        <time>2011-05-18T16:51:57Z</time>
      </trkpt>
      <trkpt lat="59.32783" lon="18.3551045">
        <ele>3.98267</ele>
        <time>2011-05-18T16:52:02Z</time>
      </trkpt>
      <trkpt lat="59.3276064" lon="18.3555453">
        <ele>3.02124</ele>
        <time>2011-05-18T16:52:07Z</time>
      </trkpt>
      <trkpt lat="59.3275767" lon="18.3556614">
        <ele>3.02124</ele>
        <time>2011-05-18T16:52:08Z</time>
      </trkpt>
      <trkpt lat="59.3274663" lon="18.3563259">
        <ele>2.06006</ele>
        <time>2011-05-18T16:52:14Z</time>
      </trkpt>
      <trkpt lat="59.3273482" lon="18.3568947">
        <ele>0.137451</ele>
        <time>2011-05-18T16:52:19Z</time>
      </trkpt>
      <trkpt lat="59.3271303" lon="18.3579231">
        <ele>1.09863</ele>
        <time>2011-05-18T16:52:28Z</time>
      </trkpt>
      <trkpt lat="59.3269506" lon="18.3590331">
        <ele>0.618042</ele>
        <time>2011-05-18T16:52:37Z</time>
      </trkpt>
      <trkpt lat="59.3269366" lon="18.3591586">
        <ele>0.618042</ele>
        <time>2011-05-18T16:52:38Z</time>
      </trkpt>
      <trkpt lat="59.3269531" lon="18.3599277">
        <ele>1.57935</ele>
        <time>2011-05-18T16:52:44Z</time>
      </trkpt>
      <trkpt lat="59.3269732" lon="18.3600532">
        <ele>1.57935</ele>
        <time>2011-05-18T16:52:45Z</time>
      </trkpt>
      <trkpt lat="59.3272003" lon="18.3612279">
        <ele>2.06006</ele>
        <time>2011-05-18T16:52:55Z</time>
      </trkpt>
      <trkpt lat="59.3273312" lon="18.362018">
        <ele>1.09863</ele>
        <time>2011-05-18T16:53:01Z</time>
      </trkpt>
      <trkpt lat="59.3274902" lon="18.3629765">
        <ele>0</ele>
        <time>2011-05-18T16:53:07Z</time>
      </trkpt>
      <trkpt lat="59.3278638" lon="18.3653984">
        <ele>0</ele>
        <time>2011-05-18T16:53:22Z</time>
      </trkpt>
      <trkpt lat="59.3279498" lon="18.3659543">
        <ele>0</ele>
        <time>2011-05-18T16:53:26Z</time>
      </trkpt>
      <trkpt lat="59.3280359" lon="18.3667279">
        <ele>0.618042</ele>
        <time>2011-05-18T16:53:32Z</time>
      </trkpt>
      <trkpt lat="59.3281104" lon="18.367659">
        <ele>1.57935</ele>
        <time>2011-05-18T16:53:39Z</time>
      </trkpt>
      <trkpt lat="59.3281089" lon="18.368232">
        <ele>1.09863</ele>
        <time>2011-05-18T16:53:43Z</time>
      </trkpt>
      <trkpt lat="59.3279919" lon="18.3689284">
        <ele>2.06006</ele>
        <time>2011-05-18T16:53:48Z</time>
      </trkpt>
      <trkpt lat="59.3277555" lon="18.369809">
        <ele>2.06006</ele>
        <time>2011-05-18T16:53:55Z</time>
      </trkpt>
      <trkpt lat="59.3275074" lon="18.3706879">
        <ele>0</ele>
        <time>2011-05-18T16:54:01Z</time>
      </trkpt>
      <trkpt lat="59.3272711" lon="18.3711519">
        <ele>0</ele>
        <time>2011-05-18T16:54:05Z</time>
      </trkpt>
      <trkpt lat="59.3270949" lon="18.3716482">
        <ele>0</ele>
        <time>2011-05-18T16:54:09Z</time>
      </trkpt>
      <trkpt lat="59.3270101" lon="18.3721041">
        <ele>0</ele>
        <time>2011-05-18T16:54:12Z</time>
      </trkpt>
      <trkpt lat="59.326965" lon="18.3725742">
        <ele>0</ele>
        <time>2011-05-18T16:54:15Z</time>
      </trkpt>
      <trkpt lat="59.326858" lon="18.3730663">
        <ele>0</ele>
        <time>2011-05-18T16:54:19Z</time>
      </trkpt>
      <trkpt lat="59.326836" lon="18.3733136">
        <ele>0</ele>
        <time>2011-05-18T16:54:21Z</time>
      </trkpt>
      <trkpt lat="59.3267998" lon="18.373959">
        <ele>0</ele>
        <time>2011-05-18T16:54:27Z</time>
      </trkpt>
      <trkpt lat="59.3267717" lon="18.3741681">
        <ele>0</ele>
        <time>2011-05-18T16:54:29Z</time>
      </trkpt>
      <trkpt lat="59.3267708" lon="18.3743914">
        <ele>0</ele>
        <time>2011-05-18T16:54:31Z</time>
      </trkpt>
      <trkpt lat="59.3267412" lon="18.3752723">
        <ele>0.137451</ele>
        <time>2011-05-18T16:54:38Z</time>
      </trkpt>
      <trkpt lat="59.3267465" lon="18.3761642">
        <ele>1.09863</ele>
        <time>2011-05-18T16:54:45Z</time>
      </trkpt>
      <trkpt lat="59.3267587" lon="18.3762767">
        <ele>1.09863</ele>
        <time>2011-05-18T16:54:46Z</time>
      </trkpt>
      <trkpt lat="59.3268369" lon="18.3766769">
        <ele>1.57935</ele>
        <time>2011-05-18T16:54:50Z</time>
      </trkpt>
      <trkpt lat="59.3270317" lon="18.3772076">
        <ele>3.50195</ele>
        <time>2011-05-18T16:54:57Z</time>
      </trkpt>
      <trkpt lat="59.3270556" lon="18.3772549">
        <ele>3.98267</ele>
        <time>2011-05-18T16:54:58Z</time>
      </trkpt>
      <trkpt lat="59.3271144" lon="18.3773924">
        <ele>4.46326</ele>
        <time>2011-05-18T16:55:01Z</time>
      </trkpt>
      <trkpt lat="59.3272447" lon="18.3778322">
        <ele>6.86646</ele>
        <time>2011-05-18T16:55:08Z</time>
      </trkpt>
      <trkpt lat="59.3273508" lon="18.3785035">
        <ele>7.34717</ele>
        <time>2011-05-18T16:55:16Z</time>
      </trkpt>
      <trkpt lat="59.3274399" lon="18.3792417">
        <ele>6.86646</ele>
        <time>2011-05-18T16:55:23Z</time>
      </trkpt>
      <trkpt lat="59.3274524" lon="18.3796877">
        <ele>5.90527</ele>
        <time>2011-05-18T16:55:27Z</time>
      </trkpt>
      <trkpt lat="59.327469" lon="18.3797986">
        <ele>5.42456</ele>
        <time>2011-05-18T16:55:31Z</time>
      </trkpt>
      <trkpt lat="59.3274791" lon="18.379797">
        <ele>5.42456</ele>
        <time>2011-05-18T16:55:32Z</time>
      </trkpt>
      <trkpt lat="59.3275127" lon="18.3797895">
        <ele>4.94385</ele>
        <time>2011-05-18T16:55:34Z</time>
      </trkpt>
      <trkpt lat="59.3275494" lon="18.3799515">
        <ele>5.42456</ele>
        <time>2011-05-18T16:55:38Z</time>
      </trkpt>
      <trkpt lat="59.327545" lon="18.3804">
        <ele>5.42456</ele>
        <time>2011-05-18T16:55:43Z</time>
      </trkpt>
      <trkpt lat="59.3275509" lon="18.3811779">
        <ele>5.42456</ele>
        <time>2011-05-18T16:55:50Z</time>
      </trkpt>
      <trkpt lat="59.3275546" lon="18.3818292">
        <ele>6.86646</ele>
        <time>2011-05-18T16:55:56Z</time>
      </trkpt>
      <trkpt lat="59.3275665" lon="18.3820126">
        <ele>7.34717</ele>
        <time>2011-05-18T16:55:58Z</time>
      </trkpt>
      <trkpt lat="59.3275572" lon="18.3823601">
        <ele>7.34717</ele>
        <time>2011-05-18T16:56:02Z</time>
      </trkpt>
      <trkpt lat="59.3274389" lon="18.3830437">
        <ele>5.90527</ele>
        <time>2011-05-18T16:56:08Z</time>
      </trkpt>
      <trkpt lat="59.3272798" lon="18.3841968">
        <ele>2.54065</ele>
        <time>2011-05-18T16:56:16Z</time>
      </trkpt>
      <trkpt lat="59.3271796" lon="18.3850289">
        <ele>2.06006</ele>
        <time>2011-05-18T16:56:22Z</time>
      </trkpt>
      <trkpt lat="59.3270398" lon="18.3857539">
        <ele>2.06006</ele>
        <time>2011-05-18T16:56:28Z</time>
      </trkpt>
      <trkpt lat="59.326948" lon="18.386706">
        <ele>1.57935</ele>
        <time>2011-05-18T16:56:35Z</time>
      </trkpt>
      <trkpt lat="59.3269199" lon="18.387149">
        <ele>0.618042</ele>
        <time>2011-05-18T16:56:38Z</time>
      </trkpt>
      <trkpt lat="59.3268869" lon="18.3878355">
        <ele>0</ele>
        <time>2011-05-18T16:56:43Z</time>
      </trkpt>
      <trkpt lat="59.326933" lon="18.3880873">
        <ele>0</ele>
        <time>2011-05-18T16:56:45Z</time>
      </trkpt>
      <trkpt lat="59.3269849" lon="18.3886836">
        <ele>0</ele>
        <time>2011-05-18T16:56:50Z</time>
      </trkpt>
      <trkpt lat="59.3269584" lon="18.3896081">
        <ele>0</ele>
        <time>2011-05-18T16:56:57Z</time>
      </trkpt>
      <trkpt lat="59.3270144" lon="18.3900023">
        <ele>0</ele>
        <time>2011-05-18T16:57:01Z</time>
      </trkpt>
      <trkpt lat="59.327033" lon="18.3901132">
        <ele>0</ele>
        <time>2011-05-18T16:57:03Z</time>
      </trkpt>
      <trkpt lat="59.3270179" lon="18.390148">
        <ele>0</ele>
        <time>2011-05-18T16:57:04Z</time>
      </trkpt>
      <trkpt lat="59.3268281" lon="18.3905285">
        <ele>0</ele>
        <time>2011-05-18T16:57:11Z</time>
      </trkpt>
      <trkpt lat="59.32656" lon="18.3911036">
        <ele>0</ele>
        <time>2011-05-18T16:57:18Z</time>
      </trkpt>
      <trkpt lat="59.3262808" lon="18.3916703">
        <ele>0</ele>
        <time>2011-05-18T16:57:25Z</time>
      </trkpt>
      <trkpt lat="59.3261622" lon="18.3919754">
        <ele>0</ele>
        <time>2011-05-18T16:57:29Z</time>
      </trkpt>
      <trkpt lat="59.3260693" lon="18.3921976">
        <ele>0</ele>
        <time>2011-05-18T16:57:32Z</time>
      </trkpt>
      <trkpt lat="59.3260052" lon="18.3923287">
        <ele>0</ele>
        <time>2011-05-18T16:57:34Z</time>
      </trkpt>
      <trkpt lat="59.3259014" lon="18.3923684">
        <ele>0</ele>
        <time>2011-05-18T16:57:38Z</time>
      </trkpt>
      <trkpt lat="59.3258071" lon="18.3924727">
        <ele>0</ele>
        <time>2011-05-18T16:57:42Z</time>
      </trkpt>
      <trkpt lat="59.3255359" lon="18.392827">
        <ele>0</ele>
        <time>2011-05-18T16:57:50Z</time>
      </trkpt>
      <trkpt lat="59.3252539" lon="18.3932621">
        <ele>1.09863</ele>
        <time>2011-05-18T16:57:58Z</time>
      </trkpt>
      <trkpt lat="59.32505" lon="18.3937799">
        <ele>2.54065</ele>
        <time>2011-05-18T16:58:05Z</time>
      </trkpt>
      <trkpt lat="59.3248183" lon="18.3943884">
        <ele>4.94385</ele>
        <time>2011-05-18T16:58:13Z</time>
      </trkpt>
      <trkpt lat="59.3245189" lon="18.3950789">
        <ele>6.86646</ele>
        <time>2011-05-18T16:58:23Z</time>
      </trkpt>
      <trkpt lat="59.3242227" lon="18.3956206">
        <ele>7.82788</ele>
        <time>2011-05-18T16:58:32Z</time>
      </trkpt>
      <trkpt lat="59.3240601" lon="18.3959309">
        <ele>9.2699</ele>
        <time>2011-05-18T16:58:37Z</time>
      </trkpt>
      <trkpt lat="59.3239369" lon="18.3963328">
        <ele>12.1538</ele>
        <time>2011-05-18T16:58:43Z</time>
      </trkpt>
      <trkpt lat="59.3237968" lon="18.3967778">
        <ele>15.0377</ele>
        <time>2011-05-18T16:58:51Z</time>
      </trkpt>
      <trkpt lat="59.3236426" lon="18.3972332">
        <ele>15.0377</ele>
        <time>2011-05-18T16:58:58Z</time>
      </trkpt>
      <trkpt lat="59.3234468" lon="18.3977083">
        <ele>15.5184</ele>
        <time>2011-05-18T16:59:05Z</time>
      </trkpt>
      <trkpt lat="59.323179" lon="18.3982764">
        <ele>15.0377</ele>
        <time>2011-05-18T16:59:13Z</time>
      </trkpt>
      <trkpt lat="59.3231138" lon="18.3984272">
        <ele>14.0764</ele>
        <time>2011-05-18T16:59:15Z</time>
      </trkpt>
      <trkpt lat="59.3230292" lon="18.3987054">
        <ele>13.1151</ele>
        <time>2011-05-18T16:59:19Z</time>
      </trkpt>
      <trkpt lat="59.3229793" lon="18.3989642">
        <ele>11.6732</ele>
        <time>2011-05-18T16:59:22Z</time>
      </trkpt>
      <trkpt lat="59.3227774" lon="18.3995043">
        <ele>10.2312</ele>
        <time>2011-05-18T16:59:27Z</time>
      </trkpt>
      <trkpt lat="59.3225817" lon="18.3999967">
        <ele>9.75061</ele>
        <time>2011-05-18T16:59:32Z</time>
      </trkpt>
      <trkpt lat="59.3222803" lon="18.40069">
        <ele>8.78918</ele>
        <time>2011-05-18T16:59:39Z</time>
      </trkpt>
      <trkpt lat="59.3219295" lon="18.4012685">
        <ele>7.82788</ele>
        <time>2011-05-18T16:59:45Z</time>
      </trkpt>
      <trkpt lat="59.321558" lon="18.4018575">
        <ele>8.78918</ele>
        <time>2011-05-18T16:59:52Z</time>
      </trkpt>
      <trkpt lat="59.3215286" lon="18.4018973">
        <ele>9.2699</ele>
        <time>2011-05-18T16:59:53Z</time>
      </trkpt>
      <trkpt lat="59.3213973" lon="18.4020144">
        <ele>9.2699</ele>
        <time>2011-05-18T16:59:59Z</time>
      </trkpt>
      <trkpt lat="59.3211319" lon="18.4021754">
        <ele>11.1925</ele>
        <time>2011-05-18T17:00:06Z</time>
      </trkpt>
      <trkpt lat="59.3210093" lon="18.4022896">
        <ele>11.6732</ele>
        <time>2011-05-18T17:00:09Z</time>
      </trkpt>
      <trkpt lat="59.3208941" lon="18.4025356">
        <ele>13.1151</ele>
        <time>2011-05-18T17:00:13Z</time>
      </trkpt>
      <trkpt lat="59.3208624" lon="18.4026724">
        <ele>14.0764</ele>
        <time>2011-05-18T17:00:15Z</time>
      </trkpt>
      <trkpt lat="59.3208245" lon="18.4027914">
        <ele>14.557</ele>
        <time>2011-05-18T17:00:17Z</time>
      </trkpt>
      <trkpt lat="59.3206381" lon="18.4031117">
        <ele>16.4797</ele>
        <time>2011-05-18T17:00:24Z</time>
      </trkpt>
      <trkpt lat="59.3204095" lon="18.4034802">
        <ele>16.4797</ele>
        <time>2011-05-18T17:00:31Z</time>
      </trkpt>
      <trkpt lat="59.3201071" lon="18.4039772">
        <ele>16.4797</ele>
        <time>2011-05-18T17:00:39Z</time>
      </trkpt>
      <trkpt lat="59.3198645" lon="18.404304">
        <ele>15.5184</ele>
        <time>2011-05-18T17:00:44Z</time>
      </trkpt>
      <trkpt lat="59.3198094" lon="18.4043807">
        <ele>15.5184</ele>
        <time>2011-05-18T17:00:45Z</time>
      </trkpt>
      <trkpt lat="59.3195939" lon="18.4049135">
        <ele>14.0764</ele>
        <time>2011-05-18T17:00:50Z</time>
      </trkpt>
      <trkpt lat="59.3195734" lon="18.4050477">
        <ele>14.0764</ele>
        <time>2011-05-18T17:00:51Z</time>
      </trkpt>
      <trkpt lat="59.3194057" lon="18.4059503">
        <ele>14.557</ele>
        <time>2011-05-18T17:00:58Z</time>
      </trkpt>
      <trkpt lat="59.3193813" lon="18.4060646">
        <ele>14.557</ele>
        <time>2011-05-18T17:00:59Z</time>
      </trkpt>
      <trkpt lat="59.3193372" lon="18.4063686">
        <ele>15.0377</ele>
        <time>2011-05-18T17:01:02Z</time>
      </trkpt>
      <trkpt lat="59.3192162" lon="18.4068629">
        <ele>15.0377</ele>
        <time>2011-05-18T17:01:08Z</time>
      </trkpt>
      <trkpt lat="59.3190064" lon="18.407582">
        <ele>15.0377</ele>
        <time>2011-05-18T17:01:15Z</time>
      </trkpt>
      <trkpt lat="59.3187008" lon="18.4084077">
        <ele>14.557</ele>
        <time>2011-05-18T17:01:23Z</time>
      </trkpt>
      <trkpt lat="59.3184358" lon="18.4092468">
        <ele>15.5184</ele>
        <time>2011-05-18T17:01:31Z</time>
      </trkpt>
      <trkpt lat="59.3182428" lon="18.4100432">
        <ele>15.999</ele>
        <time>2011-05-18T17:01:38Z</time>
      </trkpt>
      <trkpt lat="59.3180339" lon="18.410833">
        <ele>15.999</ele>
        <time>2011-05-18T17:01:45Z</time>
      </trkpt>
      <trkpt lat="59.3177954" lon="18.4117865">
        <ele>15.5184</ele>
        <time>2011-05-18T17:01:53Z</time>
      </trkpt>
      <trkpt lat="59.3175581" lon="18.4128149">
        <ele>14.0764</ele>
        <time>2011-05-18T17:02:01Z</time>
      </trkpt>
      <trkpt lat="59.3172289" lon="18.4141">
        <ele>12.6344</ele>
        <time>2011-05-18T17:02:11Z</time>
      </trkpt>
      <trkpt lat="59.3170509" lon="18.4147512">
        <ele>12.1538</ele>
        <time>2011-05-18T17:02:16Z</time>
      </trkpt>
      <trkpt lat="59.3167411" lon="18.4155096">
        <ele>11.6732</ele>
        <time>2011-05-18T17:02:23Z</time>
      </trkpt>
      <trkpt lat="59.3164447" lon="18.4160151">
        <ele>11.6732</ele>
        <time>2011-05-18T17:02:29Z</time>
      </trkpt>
      <trkpt lat="59.3160262" lon="18.4166994">
        <ele>11.6732</ele>
        <time>2011-05-18T17:02:37Z</time>
      </trkpt>
      <trkpt lat="59.3155184" lon="18.4174215">
        <ele>11.6732</ele>
        <time>2011-05-18T17:02:46Z</time>
      </trkpt>
      <trkpt lat="59.3149364" lon="18.4183208">
        <ele>12.1538</ele>
        <time>2011-05-18T17:02:57Z</time>
      </trkpt>
      <trkpt lat="59.3145696" lon="18.4190088">
        <ele>11.6732</ele>
        <time>2011-05-18T17:03:04Z</time>
      </trkpt>
      <trkpt lat="59.3141263" lon="18.420028">
        <ele>10.7118</ele>
        <time>2011-05-18T17:03:13Z</time>
      </trkpt>
      <trkpt lat="59.3140842" lon="18.4201525">
        <ele>10.7118</ele>
        <time>2011-05-18T17:03:14Z</time>
      </trkpt>
      <trkpt lat="59.313834" lon="18.4212265">
        <ele>10.2312</ele>
        <time>2011-05-18T17:03:22Z</time>
      </trkpt>
      <trkpt lat="59.3135492" lon="18.4222247">
        <ele>11.1925</ele>
        <time>2011-05-18T17:03:30Z</time>
      </trkpt>
      <trkpt lat="59.3131973" lon="18.423085">
        <ele>11.1925</ele>
        <time>2011-05-18T17:03:38Z</time>
      </trkpt>
      <trkpt lat="59.3130731" lon="18.4233983">
        <ele>11.1925</ele>
        <time>2011-05-18T17:03:41Z</time>
      </trkpt>
      <trkpt lat="59.3129674" lon="18.4238764">
        <ele>11.1925</ele>
        <time>2011-05-18T17:03:45Z</time>
      </trkpt>
      <trkpt lat="59.3129546" lon="18.4243701">
        <ele>10.7118</ele>
        <time>2011-05-18T17:03:49Z</time>
      </trkpt>
      <trkpt lat="59.3129171" lon="18.4248125">
        <ele>10.7118</ele>
        <time>2011-05-18T17:03:53Z</time>
      </trkpt>
      <trkpt lat="59.3127729" lon="18.4251002">
        <ele>10.2312</ele>
        <time>2011-05-18T17:03:57Z</time>
      </trkpt>
      <trkpt lat="59.3127434" lon="18.4252641">
        <ele>10.2312</ele>
        <time>2011-05-18T17:03:59Z</time>
      </trkpt>
      <trkpt lat="59.3127162" lon="18.4255557">
        <ele>10.7118</ele>
        <time>2011-05-18T17:04:05Z</time>
      </trkpt>
      <trkpt lat="59.3126923" lon="18.4259376">
        <ele>9.75061</ele>
        <time>2011-05-18T17:04:10Z</time>
      </trkpt>
      <trkpt lat="59.3126671" lon="18.4264138">
        <ele>9.2699</ele>
        <time>2011-05-18T17:04:15Z</time>
      </trkpt>
      <trkpt lat="59.3126685" lon="18.4265737">
        <ele>8.78918</ele>
        <time>2011-05-18T17:04:17Z</time>
      </trkpt>
      <trkpt lat="59.3126521" lon="18.4268581">
        <ele>8.78918</ele>
        <time>2011-05-18T17:04:21Z</time>
      </trkpt>
      <trkpt lat="59.3125777" lon="18.4271419">
        <ele>9.2699</ele>
        <time>2011-05-18T17:04:26Z</time>
      </trkpt>
      <trkpt lat="59.3125575" lon="18.4273185">
        <ele>8.78918</ele>
        <time>2011-05-18T17:04:30Z</time>
      </trkpt>
      <trkpt lat="59.3125371" lon="18.4274502">
        <ele>8.78918</ele>
        <time>2011-05-18T17:04:32Z</time>
      </trkpt>
      <trkpt lat="59.3124728" lon="18.4280464">
        <ele>10.2312</ele>
        <time>2011-05-18T17:04:39Z</time>
      </trkpt>
      <trkpt lat="59.3123126" lon="18.4286377">
        <ele>11.6732</ele>
        <time>2011-05-18T17:04:46Z</time>
      </trkpt>
      <trkpt lat="59.3122078" lon="18.4289787">
        <ele>12.1538</ele>
        <time>2011-05-18T17:04:50Z</time>
      </trkpt>
      <trkpt lat="59.3120003" lon="18.4294185">
        <ele>13.5958</ele>
        <time>2011-05-18T17:04:56Z</time>
      </trkpt>
      <trkpt lat="59.3119666" lon="18.4298065">
        <ele>13.5958</ele>
        <time>2011-05-18T17:05:00Z</time>
      </trkpt>
      <trkpt lat="59.3120828" lon="18.4308081">
        <ele>13.1151</ele>
        <time>2011-05-18T17:05:09Z</time>
      </trkpt>
      <trkpt lat="59.3121888" lon="18.4317643">
        <ele>13.1151</ele>
        <time>2011-05-18T17:05:17Z</time>
      </trkpt>
      <trkpt lat="59.3123038" lon="18.4328102">
        <ele>13.1151</ele>
        <time>2011-05-18T17:05:25Z</time>
      </trkpt>
      <trkpt lat="59.3123576" lon="18.4333168">
        <ele>12.6344</ele>
        <time>2011-05-18T17:05:29Z</time>
      </trkpt>
      <trkpt lat="59.3123357" lon="18.4336872">
        <ele>13.1151</ele>
        <time>2011-05-18T17:05:33Z</time>
      </trkpt>
      <trkpt lat="59.3123451" lon="18.4337647">
        <ele>13.1151</ele>
        <time>2011-05-18T17:05:34Z</time>
      </trkpt>
      <trkpt lat="59.3124697" lon="18.434617">
        <ele>13.1151</ele>
        <time>2011-05-18T17:05:43Z</time>
      </trkpt>
      <trkpt lat="59.312638" lon="18.4356028">
        <ele>13.1151</ele>
        <time>2011-05-18T17:05:52Z</time>
      </trkpt>
      <trkpt lat="59.3128395" lon="18.436787">
        <ele>10.2312</ele>
        <time>2011-05-18T17:06:02Z</time>
      </trkpt>
      <trkpt lat="59.3128748" lon="18.4370261">
        <ele>9.75061</ele>
        <time>2011-05-18T17:06:05Z</time>
      </trkpt>
      <trkpt lat="59.3129268" lon="18.4373349">
        <ele>8.78918</ele>
        <time>2011-05-18T17:06:12Z</time>
      </trkpt>
      <trkpt lat="59.3129865" lon="18.4376737">
        <ele>7.82788</ele>
        <time>2011-05-18T17:06:16Z</time>
      </trkpt>
      <trkpt lat="59.3131148" lon="18.4384928">
        <ele>5.90527</ele>
        <time>2011-05-18T17:06:23Z</time>
      </trkpt>
      <trkpt lat="59.3132702" lon="18.4394256">
        <ele>4.46326</ele>
        <time>2011-05-18T17:06:30Z</time>
      </trkpt>
      <trkpt lat="59.3134068" lon="18.4401363">
        <ele>3.50195</ele>
        <time>2011-05-18T17:06:36Z</time>
      </trkpt>
      <trkpt lat="59.3135104" lon="18.4407757">
        <ele>3.02124</ele>
        <time>2011-05-18T17:06:42Z</time>
      </trkpt>
      <trkpt lat="59.3135211" lon="18.4411895">
        <ele>3.50195</ele>
        <time>2011-05-18T17:06:48Z</time>
      </trkpt>
      <trkpt lat="59.3135419" lon="18.441712">
        <ele>3.02124</ele>
        <time>2011-05-18T17:06:53Z</time>
      </trkpt>
      <trkpt lat="59.3135305" lon="18.4427032">
        <ele>1.57935</ele>
        <time>2011-05-18T17:07:01Z</time>
      </trkpt>
      <trkpt lat="59.3135092" lon="18.4435277">
        <ele>0.137451</ele>
        <time>2011-05-18T17:07:08Z</time>
      </trkpt>
      <trkpt lat="59.3134885" lon="18.4440484">
        <ele>1.09863</ele>
        <time>2011-05-18T17:07:14Z</time>
      </trkpt>
      <trkpt lat="59.3134792" lon="18.4445731">
        <ele>1.09863</ele>
        <time>2011-05-18T17:07:21Z</time>
      </trkpt>
      <trkpt lat="59.3134574" lon="18.4453066">
        <ele>1.57935</ele>
        <time>2011-05-18T17:07:28Z</time>
      </trkpt>
      <trkpt lat="59.3134239" lon="18.4464465">
        <ele>2.54065</ele>
        <time>2011-05-18T17:07:38Z</time>
      </trkpt>
      <trkpt lat="59.3134172" lon="18.447147">
        <ele>3.50195</ele>
        <time>2011-05-18T17:07:45Z</time>
      </trkpt>
      <trkpt lat="59.3134211" lon="18.4472387">
        <ele>3.98267</ele>
        <time>2011-05-18T17:07:46Z</time>
      </trkpt>
      <trkpt lat="59.3134093" lon="18.4473738">
        <ele>3.98267</ele>
        <time>2011-05-18T17:07:48Z</time>
      </trkpt>
      <trkpt lat="59.3133876" lon="18.4480458">
        <ele>3.98267</ele>
        <time>2011-05-18T17:07:56Z</time>
      </trkpt>
      <trkpt lat="59.3133756" lon="18.4484828">
        <ele>3.98267</ele>
        <time>2011-05-18T17:08:01Z</time>
      </trkpt>
      <trkpt lat="59.313372" lon="18.4487928">
        <ele>3.98267</ele>
        <time>2011-05-18T17:08:06Z</time>
      </trkpt>
      <trkpt lat="59.3133571" lon="18.4491783">
        <ele>3.98267</ele>
        <time>2011-05-18T17:08:11Z</time>
      </trkpt>
      <trkpt lat="59.3133637" lon="18.4496536">
        <ele>4.94385</ele>
        <time>2011-05-18T17:08:17Z</time>
      </trkpt>
      <trkpt lat="59.313332" lon="18.4503033">
        <ele>4.94385</ele>
        <time>2011-05-18T17:08:24Z</time>
      </trkpt>
      <trkpt lat="59.3132992" lon="18.4509976">
        <ele>4.94385</ele>
        <time>2011-05-18T17:08:31Z</time>
      </trkpt>
      <trkpt lat="59.3132827" lon="18.4518681">
        <ele>3.98267</ele>
        <time>2011-05-18T17:08:39Z</time>
      </trkpt>
      <trkpt lat="59.3132785" lon="18.452219">
        <ele>3.98267</ele>
        <time>2011-05-18T17:08:42Z</time>
      </trkpt>
      <trkpt lat="59.3133082" lon="18.4525815">
        <ele>3.02124</ele>
        <time>2011-05-18T17:08:45Z</time>
      </trkpt>
      <trkpt lat="59.3133897" lon="18.4531183">
        <ele>3.02124</ele>
        <time>2011-05-18T17:08:50Z</time>
      </trkpt>
      <trkpt lat="59.3133072" lon="18.4533817">
        <ele>3.50195</ele>
        <time>2011-05-18T17:08:53Z</time>
      </trkpt>
      <trkpt lat="59.3132158" lon="18.4538572">
        <ele>3.02124</ele>
        <time>2011-05-18T17:08:58Z</time>
      </trkpt>
      <trkpt lat="59.313272" lon="18.4543796">
        <ele>2.06006</ele>
        <time>2011-05-18T17:09:03Z</time>
      </trkpt>
      <trkpt lat="59.3132658" lon="18.4545976">
        <ele>2.06006</ele>
        <time>2011-05-18T17:09:05Z</time>
      </trkpt>
      <trkpt lat="59.3132272" lon="18.4554057">
        <ele>1.57935</ele>
        <time>2011-05-18T17:09:12Z</time>
      </trkpt>
      <trkpt lat="59.3132135" lon="18.4555543">
        <ele>1.09863</ele>
        <time>2011-05-18T17:09:14Z</time>
      </trkpt>
      <trkpt lat="59.3132052" lon="18.4556154">
        <ele>1.09863</ele>
        <time>2011-05-18T17:09:18Z</time>
      </trkpt>
      <trkpt lat="59.3132008" lon="18.4556197">
        <ele>1.09863</ele>
        <time>2011-05-18T17:09:24Z</time>
      </trkpt>
      <trkpt lat="59.3131989" lon="18.4556171">
        <ele>1.57935</ele>
        <time>2011-05-18T17:09:36Z</time>
      </trkpt>
      <trkpt lat="59.3132" lon="18.4556056">
        <ele>2.06006</ele>
        <time>2011-05-18T17:09:42Z</time>
      </trkpt>
      <trkpt lat="59.3131719" lon="18.4556103">
        <ele>2.54065</ele>
        <time>2011-05-18T17:09:45Z</time>
      </trkpt>
      <trkpt lat="59.3130621" lon="18.4556518">
        <ele>2.54065</ele>
        <time>2011-05-18T17:09:50Z</time>
      </trkpt>
      <trkpt lat="59.3130529" lon="18.4557062">
        <ele>2.54065</ele>
        <time>2011-05-18T17:09:51Z</time>
      </trkpt>
      <trkpt lat="59.3130325" lon="18.456272">
        <ele>2.06006</ele>
        <time>2011-05-18T17:09:57Z</time>
      </trkpt>
      <trkpt lat="59.3130356" lon="18.457117">
        <ele>1.09863</ele>
        <time>2011-05-18T17:10:04Z</time>
      </trkpt>
      <trkpt lat="59.3130203" lon="18.4578791">
        <ele>1.09863</ele>
        <time>2011-05-18T17:10:10Z</time>
      </trkpt>
      <trkpt lat="59.312897" lon="18.4583155">
        <ele>1.09863</ele>
        <time>2011-05-18T17:10:14Z</time>
      </trkpt>
      <trkpt lat="59.3128062" lon="18.4584994">
        <ele>1.57935</ele>
        <time>2011-05-18T17:10:16Z</time>
      </trkpt>
      <trkpt lat="59.3124556" lon="18.4589752">
        <ele>3.50195</ele>
        <time>2011-05-18T17:10:23Z</time>
      </trkpt>
      <trkpt lat="59.3121593" lon="18.4593597">
        <ele>4.94385</ele>
        <time>2011-05-18T17:10:30Z</time>
      </trkpt>
      <trkpt lat="59.311977" lon="18.4595896">
        <ele>6.38586</ele>
        <time>2011-05-18T17:10:35Z</time>
      </trkpt>
      <trkpt lat="59.3118447" lon="18.4597882">
        <ele>6.38586</ele>
        <time>2011-05-18T17:10:39Z</time>
      </trkpt>
      <trkpt lat="59.3116802" lon="18.4602283">
        <ele>6.38586</ele>
        <time>2011-05-18T17:10:45Z</time>
      </trkpt>
      <trkpt lat="59.3114781" lon="18.4609109">
        <ele>5.42456</ele>
        <time>2011-05-18T17:10:52Z</time>
      </trkpt>
      <trkpt lat="59.3114101" lon="18.4613064">
        <ele>4.46326</ele>
        <time>2011-05-18T17:10:55Z</time>
      </trkpt>
      <trkpt lat="59.3111982" lon="18.4620528">
        <ele>1.09863</ele>
        <time>2011-05-18T17:11:00Z</time>
      </trkpt>
      <trkpt lat="59.310802" lon="18.4633537">
        <ele>0</ele>
        <time>2011-05-18T17:11:08Z</time>
      </trkpt>
      <trkpt lat="59.3104837" lon="18.4643578">
        <ele>0</ele>
        <time>2011-05-18T17:11:15Z</time>
      </trkpt>
      <trkpt lat="59.3102164" lon="18.4654586">
        <ele>0</ele>
        <time>2011-05-18T17:11:23Z</time>
      </trkpt>
      <trkpt lat="59.3100081" lon="18.4661586">
        <ele>0.618042</ele>
        <time>2011-05-18T17:11:29Z</time>
      </trkpt>
      <trkpt lat="59.3099169" lon="18.4666067">
        <ele>2.54065</ele>
        <time>2011-05-18T17:11:34Z</time>
      </trkpt>
      <trkpt lat="59.3098737" lon="18.4670688">
        <ele>3.02124</ele>
        <time>2011-05-18T17:11:40Z</time>
      </trkpt>
      <trkpt lat="59.3097842" lon="18.4677112">
        <ele>2.54065</ele>
        <time>2011-05-18T17:11:47Z</time>
      </trkpt>
      <trkpt lat="59.3096105" lon="18.468313">
        <ele>2.06006</ele>
        <time>2011-05-18T17:11:54Z</time>
      </trkpt>
      <trkpt lat="59.3093479" lon="18.4689867">
        <ele>1.09863</ele>
        <time>2011-05-18T17:12:03Z</time>
      </trkpt>
      <trkpt lat="59.3090707" lon="18.4694956">
        <ele>0.618042</ele>
        <time>2011-05-18T17:12:10Z</time>
      </trkpt>
      <trkpt lat="59.3088362" lon="18.4699562">
        <ele>0.137451</ele>
        <time>2011-05-18T17:12:16Z</time>
      </trkpt>
      <trkpt lat="59.3087948" lon="18.4700373">
        <ele>0.618042</ele>
        <time>2011-05-18T17:12:17Z</time>
      </trkpt>
      <trkpt lat="59.3084536" lon="18.4706361">
        <ele>0.137451</ele>
        <time>2011-05-18T17:12:24Z</time>
      </trkpt>
      <trkpt lat="59.30811" lon="18.4711873">
        <ele>3.02124</ele>
        <time>2011-05-18T17:12:31Z</time>
      </trkpt>
      <trkpt lat="59.307923" lon="18.4714589">
        <ele>4.46326</ele>
        <time>2011-05-18T17:12:35Z</time>
      </trkpt>
      <trkpt lat="59.3077454" lon="18.4715904">
        <ele>6.38586</ele>
        <time>2011-05-18T17:12:39Z</time>
      </trkpt>
      <trkpt lat="59.3076576" lon="18.4717451">
        <ele>7.34717</ele>
        <time>2011-05-18T17:12:42Z</time>
      </trkpt>
      <trkpt lat="59.3076164" lon="18.4718819">
        <ele>7.82788</ele>
        <time>2011-05-18T17:12:44Z</time>
      </trkpt>
      <trkpt lat="59.3073979" lon="18.4722608">
        <ele>8.30859</ele>
        <time>2011-05-18T17:12:51Z</time>
      </trkpt>
      <trkpt lat="59.3071784" lon="18.4726566">
        <ele>8.30859</ele>
        <time>2011-05-18T17:12:57Z</time>
      </trkpt>
      <trkpt lat="59.3069659" lon="18.4730956">
        <ele>8.78918</ele>
        <time>2011-05-18T17:13:04Z</time>
      </trkpt>
      <trkpt lat="59.3067781" lon="18.4734211">
        <ele>7.34717</ele>
        <time>2011-05-18T17:13:08Z</time>
      </trkpt>
      <trkpt lat="59.306678" lon="18.4736372">
        <ele>6.86646</ele>
        <time>2011-05-18T17:13:10Z</time>
      </trkpt>
      <trkpt lat="59.3064292" lon="18.4745181">
        <ele>5.42456</ele>
        <time>2011-05-18T17:13:17Z</time>
      </trkpt>
      <trkpt lat="59.3061799" lon="18.4755904">
        <ele>3.98267</ele>
        <time>2011-05-18T17:13:25Z</time>
      </trkpt>
      <trkpt lat="59.3059427" lon="18.4767608">
        <ele>0.618042</ele>
        <time>2011-05-18T17:13:33Z</time>
      </trkpt>
      <trkpt lat="59.3056759" lon="18.4779514">
        <ele>0</ele>
        <time>2011-05-18T17:13:41Z</time>
      </trkpt>
      <trkpt lat="59.3055581" lon="18.4783536">
        <ele>0</ele>
        <time>2011-05-18T17:13:44Z</time>
      </trkpt>
      <trkpt lat="59.3054511" lon="18.4790423">
        <ele>0</ele>
        <time>2011-05-18T17:13:49Z</time>
      </trkpt>
      <trkpt lat="59.3053134" lon="18.4798204">
        <ele>0.137451</ele>
        <time>2011-05-18T17:13:55Z</time>
      </trkpt>
      <trkpt lat="59.3052025" lon="18.4807029">
        <ele>2.06006</ele>
        <time>2011-05-18T17:14:02Z</time>
      </trkpt>
      <trkpt lat="59.3051429" lon="18.4812591">
        <ele>3.50195</ele>
        <time>2011-05-18T17:14:08Z</time>
      </trkpt>
      <trkpt lat="59.3050382" lon="18.4819248">
        <ele>3.02124</ele>
        <time>2011-05-18T17:14:15Z</time>
      </trkpt>
      <trkpt lat="59.3048857" lon="18.482519">
        <ele>1.09863</ele>
        <time>2011-05-18T17:14:20Z</time>
      </trkpt>
      <trkpt lat="59.3048528" lon="18.4826511">
        <ele>0.618042</ele>
        <time>2011-05-18T17:14:21Z</time>
      </trkpt>
      <trkpt lat="59.3048298" lon="18.4832668">
        <ele>0</ele>
        <time>2011-05-18T17:14:25Z</time>
      </trkpt>
      <trkpt lat="59.3048922" lon="18.4837337">
        <ele>0</ele>
        <time>2011-05-18T17:14:28Z</time>
      </trkpt>
      <trkpt lat="59.3048992" lon="18.4843201">
        <ele>0</ele>
        <time>2011-05-18T17:14:32Z</time>
      </trkpt>
      <trkpt lat="59.3048631" lon="18.48459">
        <ele>0</ele>
        <time>2011-05-18T17:14:34Z</time>
      </trkpt>
      <trkpt lat="59.3048161" lon="18.4848414">
        <ele>0</ele>
        <time>2011-05-18T17:14:36Z</time>
      </trkpt>
      <trkpt lat="59.3048091" lon="18.4851711">
        <ele>0</ele>
        <time>2011-05-18T17:14:39Z</time>
      </trkpt>
      <trkpt lat="59.3047689" lon="18.4860195">
        <ele>0</ele>
        <time>2011-05-18T17:14:46Z</time>
      </trkpt>
      <trkpt lat="59.3047404" lon="18.4870933">
        <ele>0</ele>
        <time>2011-05-18T17:14:55Z</time>
      </trkpt>
      <trkpt lat="59.3047424" lon="18.4874338">
        <ele>0</ele>
        <time>2011-05-18T17:14:58Z</time>
      </trkpt>
      <trkpt lat="59.3047673" lon="18.4880521">
        <ele>0</ele>
        <time>2011-05-18T17:15:03Z</time>
      </trkpt>
      <trkpt lat="59.3047212" lon="18.4893074">
        <ele>0</ele>
        <time>2011-05-18T17:15:12Z</time>
      </trkpt>
      <trkpt lat="59.3046576" lon="18.4902004">
        <ele>0</ele>
        <time>2011-05-18T17:15:18Z</time>
      </trkpt>
      <trkpt lat="59.304525" lon="18.4918385">
        <ele>0</ele>
        <time>2011-05-18T17:15:29Z</time>
      </trkpt>
      <trkpt lat="59.3043623" lon="18.4927847">
        <ele>0</ele>
        <time>2011-05-18T17:15:36Z</time>
      </trkpt>
      <trkpt lat="59.3041727" lon="18.4936197">
        <ele>0.137451</ele>
        <time>2011-05-18T17:15:43Z</time>
      </trkpt>
      <trkpt lat="59.3039152" lon="18.4944937">
        <ele>0.137451</ele>
        <time>2011-05-18T17:15:51Z</time>
      </trkpt>
      <trkpt lat="59.3037426" lon="18.4950615">
        <ele>0.137451</ele>
        <time>2011-05-18T17:15:56Z</time>
      </trkpt>
      <trkpt lat="59.3035824" lon="18.4960607">
        <ele>0</ele>
        <time>2011-05-18T17:16:04Z</time>
      </trkpt>
      <trkpt lat="59.3034509" lon="18.49711">
        <ele>0</ele>
        <time>2011-05-18T17:16:12Z</time>
      </trkpt>
      <trkpt lat="59.3032713" lon="18.4983263">
        <ele>0.137451</ele>
        <time>2011-05-18T17:16:22Z</time>
      </trkpt>
      <trkpt lat="59.3031388" lon="18.499232">
        <ele>0.137451</ele>
        <time>2011-05-18T17:16:30Z</time>
      </trkpt>
      <trkpt lat="59.3030246" lon="18.4998333">
        <ele>0.137451</ele>
        <time>2011-05-18T17:16:36Z</time>
      </trkpt>
      <trkpt lat="59.302943" lon="18.5004146">
        <ele>1.09863</ele>
        <time>2011-05-18T17:16:43Z</time>
      </trkpt>
      <trkpt lat="59.3028705" lon="18.5009957">
        <ele>3.02124</ele>
        <time>2011-05-18T17:16:51Z</time>
      </trkpt>
      <trkpt lat="59.3028066" lon="18.5015718">
        <ele>4.94385</ele>
        <time>2011-05-18T17:16:59Z</time>
      </trkpt>
      <trkpt lat="59.3027498" lon="18.5019136">
        <ele>5.90527</ele>
        <time>2011-05-18T17:17:05Z</time>
      </trkpt>
      <trkpt lat="59.3026954" lon="18.5020831">
        <ele>6.38586</ele>
        <time>2011-05-18T17:17:09Z</time>
      </trkpt>
      <trkpt lat="59.3025782" lon="18.5020308">
        <ele>6.38586</ele>
        <time>2011-05-18T17:17:13Z</time>
      </trkpt>
      <trkpt lat="59.3024735" lon="18.5017687">
        <ele>6.38586</ele>
        <time>2011-05-18T17:17:17Z</time>
      </trkpt>
      <trkpt lat="59.3022658" lon="18.5009457">
        <ele>7.82788</ele>
        <time>2011-05-18T17:17:28Z</time>
      </trkpt>
      <trkpt lat="59.3020714" lon="18.5002717">
        <ele>10.7118</ele>
        <time>2011-05-18T17:17:38Z</time>
      </trkpt>
      <trkpt lat="59.3019378" lon="18.4997396">
        <ele>13.5958</ele>
        <time>2011-05-18T17:17:46Z</time>
      </trkpt>
      <trkpt lat="59.3018225" lon="18.4992219">
        <ele>16.4797</ele>
        <time>2011-05-18T17:17:54Z</time>
      </trkpt>
      <trkpt lat="59.3018011" lon="18.4989175">
        <ele>18.8831</ele>
        <time>2011-05-18T17:17:59Z</time>
      </trkpt>
      <trkpt lat="59.3017511" lon="18.4984579">
        <ele>19.8444</ele>
        <time>2011-05-18T17:18:06Z</time>
      </trkpt>
      <trkpt lat="59.3016655" lon="18.4981114">
        <ele>19.3638</ele>
        <time>2011-05-18T17:18:12Z</time>
      </trkpt>
      <trkpt lat="59.3015106" lon="18.497593">
        <ele>18.8831</ele>
        <time>2011-05-18T17:18:21Z</time>
      </trkpt>
      <trkpt lat="59.3014619" lon="18.4975068">
        <ele>19.3638</ele>
        <time>2011-05-18T17:18:23Z</time>
      </trkpt>
      <trkpt lat="59.3013374" lon="18.4975995">
        <ele>19.3638</ele>
        <time>2011-05-18T17:18:28Z</time>
      </trkpt>
      <trkpt lat="59.3012195" lon="18.4978074">
        <ele>20.325</ele>
        <time>2011-05-18T17:18:33Z</time>
      </trkpt>
      <trkpt lat="59.3011788" lon="18.4978633">
        <ele>20.8057</ele>
        <time>2011-05-18T17:18:40Z</time>
      </trkpt>
      <trkpt lat="59.3010909" lon="18.4980178">
        <ele>21.2864</ele>
        <time>2011-05-18T17:18:49Z</time>
      </trkpt>
      <trkpt lat="59.3010721" lon="18.4980634">
        <ele>21.2864</ele>
        <time>2011-05-18T17:18:51Z</time>
      </trkpt>
    </trkseg>
  </trk>
</gpx>